Home > Products > Valid Products > TAF

000
FTUS46 KOTX 230304 AAA
TAFCOE
TAF AMD
KCOE 230304Z 2303/2324 24008KT P6SM OVC015
     FM231500 22005KT 6SM -SN BKN008 OVC030
     FM232100 22012KT P6SM -RA BKN010 OVC020
      AMD LTD TO CLD AND VIS=



000
FTUS46 KOTX 230304 AAA
TAFCOE
TAF AMD
KCOE 230304Z 2303/2324 24008KT P6SM OVC015
     FM231500 22005KT 6SM -SN BKN008 OVC030
     FM232100 22012KT P6SM -RA BKN010 OVC020
      AMD LTD TO CLD AND VIS=



000
FTUS46 KOTX 230300 AAB
TAFPUW
TAF AMD
KPUW 230300Z 2303/2324 25014G22KT P6SM BKN005 OVC010
     FM231400 24010KT 4SM -SN BR OVC008
     FM232100 23016G25KT P6SM -RA OVC012=



000
FTUS46 KOTX 230300 AAB
TAFPUW
TAF AMD
KPUW 230300Z 2303/2324 25014G22KT P6SM BKN005 OVC010
     FM231400 24010KT 4SM -SN BR OVC008
     FM232100 23016G25KT P6SM -RA OVC012=



000
FTUS46 KOTX 230028 AAA
TAFPUW
TAF AMD
KPUW 230028Z 2300/2324 25014KT P6SM VCSH BKN013 OVC080
     FM230400 25016G22KT 5SM BR BKN010
     FM231400 24010KT 4SM -SN BR BKN008
     FM232100 23016G25KT P6SM -RA BKN012=



000
FTUS46 KOTX 230028 AAA
TAFPUW
TAF AMD
KPUW 230028Z 2300/2324 25014KT P6SM VCSH BKN013 OVC080
     FM230400 25016G22KT 5SM BR BKN010
     FM231400 24010KT 4SM -SN BR BKN008
     FM232100 23016G25KT P6SM -RA BKN012=



000
FTUS46 KOTX 222338
TAFLWS
TAF
KLWS 222338Z 2300/2324 29015KT P6SM VCSH SCT040 OVC070
     FM230400 24006KT P6SM SCT050 BKN090
     FM231300 20003KT P6SM OVC040
     FM231800 19006KT P6SM -RA BKN025 OVC040=



000
FTUS46 KOTX 222338
TAFPUW
TAF
KPUW 222338Z 2300/2324 25014KT P6SM VCSH BKN035 OVC080
     FM230400 25016G22KT 5SM BR BKN010
     FM231400 24010KT 4SM -SN BR BKN008
     FM232100 23016G25KT P6SM -RA BKN012=



000
FTUS46 KOTX 222338
TAFGEG
TAF
KGEG 222338Z 2300/2324 23014KT P6SM SCT030 BKN120
     FM230900 22010KT P6SM BKN010
     FM231500 20008KT P6SM -SN BKN008 OVC040
     FM231900 22017G26KT P6SM -RA BKN013 OVC035=



000
FTUS46 KOTX 222338
TAFSFF
TAF
KSFF 222338Z 2300/2324 23008KT P6SM BKN120
     FM230900 24005KT P6SM BKN015
     FM231500 20004KT P6SM -SN BKN016 OVC060
     FM231900 22013KT P6SM -RA BKN019 OVC045=



000
FTUS46 KOTX 222338
TAFCOE
TAF
KCOE 222338Z 2300/2324 24012KT P6SM SCT050 BKN120
     FM230200 23009KT P6SM SCT030 BKN080
     FM230600 24006KT P6SM BKN012
     FM231500 22005KT 6SM -SN BKN008 OVC030
     FM232100 22012KT P6SM -RA BKN010 OVC020
      AMD LTD TO CLD AND VIS=



000
FTUS46 KOTX 222338
TAFMWH
TAF
KMWH 222338Z 2300/2324 24009KT P6SM OVC100
     FM231600 19005KT P6SM SCT040 OVC060
     FM232100 21012KT P6SM OVC090=



000
FTUS46 KOTX 222338
TAFCOE
TAF
KCOE 222338Z 2300/2324 24012KT P6SM SCT050 BKN120
     FM230200 23009KT P6SM SCT030 BKN080
     FM230600 24006KT P6SM BKN012
     FM231500 22005KT 6SM -SN BKN008 OVC030
     FM232100 22012KT P6SM -RA BKN010 OVC020
      AMD LTD TO CLD AND VIS=



000
FTUS46 KOTX 222338
TAFLWS
TAF
KLWS 222338Z 2300/2324 29015KT P6SM VCSH SCT040 OVC070
     FM230400 24006KT P6SM SCT050 BKN090
     FM231300 20003KT P6SM OVC040
     FM231800 19006KT P6SM -RA BKN025 OVC040=



000
FTUS46 KOTX 222338
TAFGEG
TAF
KGEG 222338Z 2300/2324 23014KT P6SM SCT030 BKN120
     FM230900 22010KT P6SM BKN010
     FM231500 20008KT P6SM -SN BKN008 OVC040
     FM231900 22017G26KT P6SM -RA BKN013 OVC035=



000
FTUS46 KOTX 222338
TAFSFF
TAF
KSFF 222338Z 2300/2324 23008KT P6SM BKN120
     FM230900 24005KT P6SM BKN015
     FM231500 20004KT P6SM -SN BKN016 OVC060
     FM231900 22013KT P6SM -RA BKN019 OVC045=



000
FTUS46 KOTX 222338
TAFPUW
TAF
KPUW 222338Z 2300/2324 25014KT P6SM VCSH BKN035 OVC080
     FM230400 25016G22KT 5SM BR BKN010
     FM231400 24010KT 4SM -SN BR BKN008
     FM232100 23016G25KT P6SM -RA BKN012=



000
FTUS46 KOTX 222338
TAFEAT
TAF
KEAT 222338Z 2300/2324 31017KT P6SM SKC
     FM230700 34005KT P6SM SCT100
     FM231400 19005KT P6SM SCT040 OVC060
     FM231800 VRB03KT P6SM BKN060 PROB30 2321/2324 -SHRA OVC040=



000
FTUS46 KOTX 222338
TAFMWH
TAF
KMWH 222338Z 2300/2324 24009KT P6SM OVC100
     FM231600 19005KT P6SM SCT040 OVC060
     FM232100 21012KT P6SM OVC090=



000
FTUS46 KOTX 222338
TAFEAT
TAF
KEAT 222338Z 2300/2324 31017KT P6SM SKC
     FM230700 34005KT P6SM SCT100
     FM231400 19005KT P6SM SCT040 OVC060
     FM231800 VRB03KT P6SM BKN060 PROB30 2321/2324 -SHRA OVC040=



000
FTUS46 KOTX 222247 AAB
TAFGEG
TAF AMD
KGEG 222247Z 2223/2318 23014KT P6SM SCT030 BKN110
     FM230000 24013KT P6SM SCT035 BKN110
     FM230900 22010KT P6SM BKN010
     FM231500 20008KT P6SM -SN BKN010 OVC060=



000
FTUS46 KOTX 222246 AAA
TAFCOE
TAF AMD
KCOE 222246Z 2223/2318 24012KT P6SM SCT050 BKN100
     FM230200 23009KT P6SM SCT030 BKN080
     FM230600 24006KT P6SM BKN012
     FM231500 22005KT 6SM -SN BKN015 OVC050
      AMD LTD TO CLD AND VIS=



000
FTUS46 KOTX 222246 AAA
TAFSFF
TAF AMD
KSFF 222246Z 2223/2318 26004KT P6SM SCT030 BKN100
     FM230900 24005KT P6SM BKN015
     FM231500 20004KT P6SM -SN BKN015 OVC060=



000
FTUS46 KOTX 222246 AAA
TAFCOE
TAF AMD
KCOE 222246Z 2223/2318 24012KT P6SM SCT050 BKN100
     FM230200 23009KT P6SM SCT030 BKN080
     FM230600 24006KT P6SM BKN012
     FM231500 22005KT 6SM -SN BKN015 OVC050
      AMD LTD TO CLD AND VIS=



000
FTUS46 KOTX 222246 AAA
TAFSFF
TAF AMD
KSFF 222246Z 2223/2318 26004KT P6SM SCT030 BKN100
     FM230900 24005KT P6SM BKN015
     FM231500 20004KT P6SM -SN BKN015 OVC060=



000
FTUS46 KOTX 221812 AAA
TAFGEG
TAF AMD
KGEG 221812Z 2218/2318 24011KT P6SM SCT080
     FM221900 23014G25KT P6SM SCT050 BKN150
     FM230000 24013KT P6SM SCT035 BKN110
     FM230900 22010KT P6SM BKN010
     FM231500 20008KT P6SM -SN BKN010 OVC060=



000
FTUS46 KOTX 221812 AAA
TAFGEG
TAF AMD
KGEG 221812Z 2218/2318 24011KT P6SM SCT080
     FM221900 23014G25KT P6SM SCT050 BKN150
     FM230000 24013KT P6SM SCT035 BKN110
     FM230900 22010KT P6SM BKN010
     FM231500 20008KT P6SM -SN BKN010 OVC060=



000
FTUS46 KOTX 221739
TAFSFF
TAF
KSFF 221739Z 2218/2318 26004KT P6SM SKC
     FM221900 24015G23KT P6SM SCT030 BKN100
     FM230000 24011KT P6SM SCT035 BKN110
     FM230900 24005KT P6SM BKN015
     FM231500 20004KT P6SM -SN BKN015 OVC060=



000
FTUS46 KOTX 221739
TAFLWS
TAF
KLWS 221739Z 2218/2318 26011G20KT P6SM SCT080
     FM222300 27010KT P6SM BKN050 OVC080
     FM230000 25009KT P6SM -SHRA SCT040 OVC050
     FM230400 24006KT P6SM SCT050 BKN090=



000
FTUS46 KOTX 221739
TAFCOE
TAF
KCOE 221739Z 2218/2318 24008KT P6SM FEW020 SCT050 BKN080
     FM222000 24015KT P6SM VCSH BKN030 BKN050
     FM230200 23009KT P6SM VCSH SCT030 BKN080
     FM230600 24006KT P6SM BKN012
     FM231500 22005KT 6SM -SN BKN015 OVC050
      AMD LTD TO CLD AND VIS=



000
FTUS46 KOTX 221739
TAFEAT
TAF
KEAT 221739Z 2218/2318 09003KT P6SM SCT050 BKN090 OVC150
      TEMPO 2219/2221 6SM -SHSNRA BKN040
     FM230300 30009KT P6SM SCT100
     FM231600 19005KT P6SM SCT040 OVC060=



000
FTUS46 KOTX 221739
TAFGEG
TAF
KGEG 221739Z 2218/2318 24014KT P6SM SCT080
     FM221900 23017G25KT P6SM SCT050 BKN150
     FM230000 24013KT P6SM SCT035 BKN110
     FM230900 22010KT P6SM BKN010
     FM231500 20008KT P6SM -SN BKN010 OVC060=



000
FTUS46 KOTX 221739
TAFMWH
TAF
KMWH 221739Z 2218/2318 22009KT P6SM SCT100
     FM221900 25010G19KT P6SM SCT050 BKN120
      TEMPO 2219/2221 6SM -SHRA BKN040
     FM230000 24010KT P6SM BKN150
     FM231600 19005KT P6SM SCT040 OVC060=



000
FTUS46 KOTX 221739
TAFPUW
TAF
KPUW 221739Z 2218/2318 26022G29KT P6SM FEW060 SCT080
     FM222300 25015G24KT P6SM VCSH OVC040
     FM230000 26014G22KT P6SM -RA BKN030 OVC050
     FM230200 25014KT 6SM -SHRA BKN012 OVC030
     FM230400 24010KT 5SM BR BKN010=



000
FTUS46 KOTX 221739
TAFPUW
TAF
KPUW 221739Z 2218/2318 26022G29KT P6SM FEW060 SCT080
     FM222300 25015G24KT P6SM VCSH OVC040
     FM230000 26014G22KT P6SM -RA BKN030 OVC050
     FM230200 25014KT 6SM -SHRA BKN012 OVC030
     FM230400 24010KT 5SM BR BKN010=



000
FTUS46 KOTX 221739
TAFMWH
TAF
KMWH 221739Z 2218/2318 22009KT P6SM SCT100
     FM221900 25010G19KT P6SM SCT050 BKN120
      TEMPO 2219/2221 6SM -SHRA BKN040
     FM230000 24010KT P6SM BKN150
     FM231600 19005KT P6SM SCT040 OVC060=



000
FTUS46 KOTX 221739
TAFCOE
TAF
KCOE 221739Z 2218/2318 24008KT P6SM FEW020 SCT050 BKN080
     FM222000 24015KT P6SM VCSH BKN030 BKN050
     FM230200 23009KT P6SM VCSH SCT030 BKN080
     FM230600 24006KT P6SM BKN012
     FM231500 22005KT 6SM -SN BKN015 OVC050
      AMD LTD TO CLD AND VIS=



000
FTUS46 KOTX 221739
TAFSFF
TAF
KSFF 221739Z 2218/2318 26004KT P6SM SKC
     FM221900 24015G23KT P6SM SCT030 BKN100
     FM230000 24011KT P6SM SCT035 BKN110
     FM230900 24005KT P6SM BKN015
     FM231500 20004KT P6SM -SN BKN015 OVC060=



000
FTUS46 KOTX 221739
TAFEAT
TAF
KEAT 221739Z 2218/2318 09003KT P6SM SCT050 BKN090 OVC150
      TEMPO 2219/2221 6SM -SHSNRA BKN040
     FM230300 30009KT P6SM SCT100
     FM231600 19005KT P6SM SCT040 OVC060=



000
FTUS46 KOTX 221739
TAFLWS
TAF
KLWS 221739Z 2218/2318 26011G20KT P6SM SCT080
     FM222300 27010KT P6SM BKN050 OVC080
     FM230000 25009KT P6SM -SHRA SCT040 OVC050
     FM230400 24006KT P6SM SCT050 BKN090=



000
FTUS46 KOTX 221739
TAFGEG
TAF
KGEG 221739Z 2218/2318 24014KT P6SM SCT080
     FM221900 23017G25KT P6SM SCT050 BKN150
     FM230000 24013KT P6SM SCT035 BKN110
     FM230900 22010KT P6SM BKN010
     FM231500 20008KT P6SM -SN BKN010 OVC060=



000
FTUS46 KOTX 221451 CCA
TAFGEG
TAF COR
KGEG 221451Z 2215/2312 23015G24KT P6SM SCT005 SCT070
     FM221900 23017G25KT P6SM SCT050 BKN150
     FM230000 24013KT P6SM SCT035 BKN120
     FM230900 22010KT P6SM BKN010=



000
FTUS46 KOTX 221451 CCA
TAFGEG
TAF COR
KGEG 221451Z 2215/2312 23015G24KT P6SM SCT005 SCT070
     FM221900 23017G25KT P6SM SCT050 BKN150
     FM230000 24013KT P6SM SCT035 BKN120
     FM230900 22010KT P6SM BKN010=



000
FTUS46 KOTX 221450 AAB
TAFSFF
TAF AMD
KSFF 221450Z 2215/2312 25005KT P6SM BKN014
     FM221530 23009KT P6SM SCT020 SCT070
     FM221900 24015G23KT P6SM SCT030 BKN100
     FM230000 24011KT P6SM SCT035 BKN110
     FM230900 24005KT P6SM BKN015=



000
FTUS46 KOTX 221450 AAB
TAFSFF
TAF AMD
KSFF 221450Z 2215/2312 25005KT P6SM BKN014
     FM221530 23009KT P6SM SCT020 SCT070
     FM221900 24015G23KT P6SM SCT030 BKN100
     FM230000 24011KT P6SM SCT035 BKN110
     FM230900 24005KT P6SM BKN015=



000
FTUS46 KOTX 221448 AAB
TAFGEG
TAF AMD
KGEG 221448Z 2215/2312 23015G24KT P6SM SCT005 OVC009
     FM221900 23017G25KT P6SM SCT050 BKN150
     FM230000 24013KT P6SM SCT035 BKN120
     FM230900 22010KT P6SM BKN010=



000
FTUS46 KOTX 221301 AAA
TAFSFF
TAF AMD
KSFF 221301Z 2213/2312 23011KT P6SM OVC012
     FM221900 24015G23KT P6SM SCT030 BKN100
     FM230000 24011KT P6SM SCT035 BKN110
     FM230900 24005KT P6SM BKN015=



000
FTUS46 KOTX 221301 AAA
TAFSFF
TAF AMD
KSFF 221301Z 2213/2312 23011KT P6SM OVC012
     FM221900 24015G23KT P6SM SCT030 BKN100
     FM230000 24011KT P6SM SCT035 BKN110
     FM230900 24005KT P6SM BKN015=



000
FTUS46 KOTX 221300 AAA
TAFGEG
TAF AMD
KGEG 221300Z 2213/2312 21014KT 5SM BR BKN006 OVC008
     FM221700 23015G24KT P6SM SCT005 OVC009
     FM221900 23017G25KT P6SM SCT050 BKN150
     FM230000 24013KT P6SM SCT035 BKN120
     FM230900 22010KT P6SM BKN010=



000
FTUS46 KOTX 221139
TAFSFF
TAF
KSFF 221139Z 2212/2312 23013G18KT P6SM SCT017 SCT060 BKN120
     FM221800 24015G23KT P6SM SCT030 BKN100
     FM230000 24011KT P6SM SCT035 BKN110
     FM230900 24005KT P6SM BKN015=



000
FTUS46 KOTX 221139
TAFLWS
TAF
KLWS 221139Z 2212/2312 23012G18KT P6SM BKN080 OVC120
     FM221600 27016G22KT P6SM SCT080 BKN120
     FM230100 23011KT P6SM BKN070 BKN120
     FM231000 24006KT P6SM SCT120 BKN200=



000
FTUS46 KOTX 221139
TAFCOE
TAF
KCOE 221139Z 2212/2312 23018G24KT P6SM FEW014 SCT060 BKN080
     FM221400 23016G22KT P6SM BKN018 BKN080
     FM221800 23015G22KT P6SM BKN025
     FM222100 24015KT P6SM VCSH BKN030 BKN050
     FM230200 23009KT P6SM SCT030 BKN080
     FM230600 24006KT P6SM BKN012
      AMD LTD TO CLD AND VIS=



000
FTUS46 KOTX 221139
TAFPUW
TAF
KPUW 221139Z 2212/2312 25015G25KT P6SM SCT020 BKN070
     FM221500 24019G27KT P6SM SCT025 BKN060
     FM221900 25022G30KT P6SM SCT060 BKN100
     FM230100 26017G22KT P6SM VCSH SCT030 BKN050=



000
FTUS46 KOTX 221139
TAFEAT
TAF
KEAT 221139Z 2212/2312 29010KT P6SM SCT020 BKN100
     FM221800 29014KT P6SM SCT060 BKN100
     FM230300 30009KT P6SM SCT100=



000
FTUS46 KOTX 221139
TAFMWH
TAF
KMWH 221139Z 2212/2312 22012KT P6SM SCT050
     FM221900 25012G19KT P6SM SCT120
     FM230000 24010KT P6SM BKN150
     FM230600 24007KT P6SM SCT150=



000
FTUS46 KOTX 221139
TAFGEG
TAF
KGEG 221139Z 2212/2312 22017G23KT P6SM SCT010 SCT110
     FM221700 23020G30KT P6SM SCT030 BKN120
     FM230000 24013KT P6SM SCT035 BKN120
     FM230900 22010KT P6SM BKN010=



000
FTUS46 KOTX 221139
TAFEAT
TAF
KEAT 221139Z 2212/2312 29010KT P6SM SCT020 BKN100
     FM221800 29014KT P6SM SCT060 BKN100
     FM230300 30009KT P6SM SCT100=



000
FTUS46 KOTX 221139
TAFMWH
TAF
KMWH 221139Z 2212/2312 22012KT P6SM SCT050
     FM221900 25012G19KT P6SM SCT120
     FM230000 24010KT P6SM BKN150
     FM230600 24007KT P6SM SCT150=



000
FTUS46 KOTX 221139
TAFLWS
TAF
KLWS 221139Z 2212/2312 23012G18KT P6SM BKN080 OVC120
     FM221600 27016G22KT P6SM SCT080 BKN120
     FM230100 23011KT P6SM BKN070 BKN120
     FM231000 24006KT P6SM SCT120 BKN200=



000
FTUS46 KOTX 221139
TAFSFF
TAF
KSFF 221139Z 2212/2312 23013G18KT P6SM SCT017 SCT060 BKN120
     FM221800 24015G23KT P6SM SCT030 BKN100
     FM230000 24011KT P6SM SCT035 BKN110
     FM230900 24005KT P6SM BKN015=



000
FTUS46 KOTX 221139
TAFCOE
TAF
KCOE 221139Z 2212/2312 23018G24KT P6SM FEW014 SCT060 BKN080
     FM221400 23016G22KT P6SM BKN018 BKN080
     FM221800 23015G22KT P6SM BKN025
     FM222100 24015KT P6SM VCSH BKN030 BKN050
     FM230200 23009KT P6SM SCT030 BKN080
     FM230600 24006KT P6SM BKN012
      AMD LTD TO CLD AND VIS=



000
FTUS46 KOTX 221139
TAFPUW
TAF
KPUW 221139Z 2212/2312 25015G25KT P6SM SCT020 BKN070
     FM221500 24019G27KT P6SM SCT025 BKN060
     FM221900 25022G30KT P6SM SCT060 BKN100
     FM230100 26017G22KT P6SM VCSH SCT030 BKN050=



000
FTUS46 KOTX 221139
TAFGEG
TAF
KGEG 221139Z 2212/2312 22017G23KT P6SM SCT010 SCT110
     FM221700 23020G30KT P6SM SCT030 BKN120
     FM230000 24013KT P6SM SCT035 BKN120
     FM230900 22010KT P6SM BKN010=



000
FTUS46 KOTX 221113 AAA
TAFCOE
TAF AMD
KCOE 221113Z 2211/2306 23018G24KT P6SM FEW014 SCT060 BKN080
     FM221400 23016G22KT P6SM BKN018 BKN080
     FM221800 23015G22KT P6SM BKN025
     FM222100 24015KT P6SM VCSH BKN030 BKN050
     FM230200 23009KT P6SM SCT030 BKN080
      AMD LTD TO CLD AND VIS=



000
FTUS46 KOTX 221105 AAA
TAFSFF
TAF AMD
KSFF 221105Z 2211/2306 23013G18KT P6SM SCT017 SCT060 BKN120
     FM221800 24015G23KT P6SM SCT030 BKN100
     FM230000 24011KT P6SM SCT035 BKN110=



000
FTUS46 KOTX 221105 AAA
TAFSFF
TAF AMD
KSFF 221105Z 2211/2306 23013G18KT P6SM SCT017 SCT060 BKN120
     FM221800 24015G23KT P6SM SCT030 BKN100
     FM230000 24011KT P6SM SCT035 BKN110=



000
FTUS46 KOTX 221103 AAB
TAFGEG
TAF AMD
KGEG 221103Z 2211/2306 22017G23KT P6SM SCT010 SCT110
     FM221700 23020G30KT P6SM SCT030 BKN120
     FM230000 24013KT P6SM SCT035 BKN120=



000
FTUS46 KOTX 221103 AAB
TAFGEG
TAF AMD
KGEG 221103Z 2211/2306 22017G23KT P6SM SCT010 SCT110
     FM221700 23020G30KT P6SM SCT030 BKN120
     FM230000 24013KT P6SM SCT035 BKN120=



000
FTUS46 KOTX 220821 AAA
TAFGEG
TAF AMD
KGEG 220821Z 2208/2306 21019G28KT P6SM -RA FEW007 SCT014 OVC019
      WS020/25046KT
     FM221000 23017G26KT P6SM SCT015 OVC020
     FM221800 24023G30KT P6SM SCT030 BKN100
     FM230000 24013G18KT P6SM SCT050 BKN090
     FM230200 23009KT P6SM SCT070=



000
FTUS46 KOTX 220821 AAA
TAFGEG
TAF AMD
KGEG 220821Z 2208/2306 21019G28KT P6SM -RA FEW007 SCT014 OVC019
      WS020/25046KT
     FM221000 23017G26KT P6SM SCT015 OVC020
     FM221800 24023G30KT P6SM SCT030 BKN100
     FM230000 24013G18KT P6SM SCT050 BKN090
     FM230200 23009KT P6SM SCT070=



000
FTUS46 KOTX 220552
TAFCOE
TAF
KCOE 220552Z 2206/2306 15010KT P6SM -SHRA BKN015 OVC025
      WS020/25046KT
     FM221000 23010KT P6SM BKN020 OVC028
     FM221800 24015G22KT P6SM SCT025 BKN050
     FM230000 24009KT P6SM VCSH SCT030 BKN090
     FM230100 23009KT P6SM -SHRASN BKN030 OVC050
     FM230400 24008KT P6SM BKN030 OVC060
      AMD LTD TO CLD AND VIS=



000
FTUS46 KOTX 220552
TAFMWH
TAF
KMWH 220552Z 2206/2306 27006KT 2SM BR OVC004 WS020/25044KT
     FM220900 22009KT 4SM BR OVC005
     FM221700 25014KT P6SM BKN250
     FM222200 24010KT P6SM SCT050 BKN100
     FM230100 25008KT P6SM SCT090=



000
FTUS46 KOTX 220552
TAFGEG
TAF
KGEG 220552Z 2206/2306 15014G22KT 4SM -SHRA BKN008 OVC015
      WS020/25046KT
     FM220900 22015G22KT 6SM BR OVC009
     FM221000 23017G26KT P6SM SCT009 OVC016
     FM221800 24023G30KT P6SM SCT030 BKN100
     FM230000 24013G18KT P6SM SCT050 BKN090
     FM230200 23009KT P6SM SCT070=



000
FTUS46 KOTX 220552
TAFSFF
TAF
KSFF 220552Z 2206/2306 14009KT 5SM -SHRA BR BKN011 OVC025
      WS018/25046KT
     FM220900 22011KT 6SM BR OVC013
     FM221000 23013G18KT P6SM SCT012 OVC020
     FM221800 24017G25KT P6SM SCT030 BKN100
     FM230000 24013G18KT P6SM SCT050 BKN090
     FM230200 23006KT P6SM SCT070=



000
FTUS46 KOTX 220552
TAFMWH
TAF
KMWH 220552Z 2206/2306 27006KT 2SM BR OVC004 WS020/25044KT
     FM220900 22009KT 4SM BR OVC005
     FM221700 25014KT P6SM BKN250
     FM222200 24010KT P6SM SCT050 BKN100
     FM230100 25008KT P6SM SCT090=



000
FTUS46 KOTX 220552
TAFPUW
TAF
KPUW 220552Z 2206/2306 16018G25KT P6SM -SHRA SCT020 OVC030
      WS020/25046KT
     FM220900 23017G26KT P6SM -SHRA BKN025 OVC050
     FM221500 24020G27KT P6SM SCT025 BKN060
     FM221900 26024G31KT P6SM OVC200
     FM222300 26017G22KT P6SM VCSH SCT030 BKN050=



000
FTUS46 KOTX 220552
TAFLWS
TAF
KLWS 220552Z 2206/2306 12008KT P6SM -SHRA SCT035 OVC050
      WS020/25046KT
     FM220900 23009G16KT P6SM -SHRA BKN025 OVC050
     FM221600 27012G20KT P6SM SCT025 BKN060
     FM221900 28013G22KT P6SM OVC200
     FM222300 29011KT P6SM VCSH SCT040 BKN060=



000
FTUS46 KOTX 220552
TAFLWS
TAF
KLWS 220552Z 2206/2306 12008KT P6SM -SHRA SCT035 OVC050
      WS020/25046KT
     FM220900 23009G16KT P6SM -SHRA BKN025 OVC050
     FM221600 27012G20KT P6SM SCT025 BKN060
     FM221900 28013G22KT P6SM OVC200
     FM222300 29011KT P6SM VCSH SCT040 BKN060=



000
FTUS46 KOTX 220552
TAFPUW
TAF
KPUW 220552Z 2206/2306 16018G25KT P6SM -SHRA SCT020 OVC030
      WS020/25046KT
     FM220900 23017G26KT P6SM -SHRA BKN025 OVC050
     FM221500 24020G27KT P6SM SCT025 BKN060
     FM221900 26024G31KT P6SM OVC200
     FM222300 26017G22KT P6SM VCSH SCT030 BKN050=



000
FTUS46 KOTX 220552
TAFEAT
TAF
KEAT 220552Z 2206/2306 30002KT P6SM SCT005 BKN050 WS020/25046KT
     FM221100 29010KT P6SM SCT020 BKN100
     FM221800 29014KT P6SM SCT060 BKN100
     FM230300 30009KT P6SM SCT100=



000
FTUS46 KOTX 220552
TAFEAT
TAF
KEAT 220552Z 2206/2306 30002KT P6SM SCT005 BKN050 WS020/25046KT
     FM221100 29010KT P6SM SCT020 BKN100
     FM221800 29014KT P6SM SCT060 BKN100
     FM230300 30009KT P6SM SCT100=



000
FTUS46 KOTX 220552
TAFSFF
TAF
KSFF 220552Z 2206/2306 14009KT 5SM -SHRA BR BKN011 OVC025
      WS018/25046KT
     FM220900 22011KT 6SM BR OVC013
     FM221000 23013G18KT P6SM SCT012 OVC020
     FM221800 24017G25KT P6SM SCT030 BKN100
     FM230000 24013G18KT P6SM SCT050 BKN090
     FM230200 23006KT P6SM SCT070=



000
FTUS46 KOTX 220552
TAFGEG
TAF
KGEG 220552Z 2206/2306 15014G22KT 4SM -SHRA BKN008 OVC015
      WS020/25046KT
     FM220900 22015G22KT 6SM BR OVC009
     FM221000 23017G26KT P6SM SCT009 OVC016
     FM221800 24023G30KT P6SM SCT030 BKN100
     FM230000 24013G18KT P6SM SCT050 BKN090
     FM230200 23009KT P6SM SCT070=



000
FTUS46 KOTX 220552
TAFCOE
TAF
KCOE 220552Z 2206/2306 15010KT P6SM -SHRA BKN015 OVC025
      WS020/25046KT
     FM221000 23010KT P6SM BKN020 OVC028
     FM221800 24015G22KT P6SM SCT025 BKN050
     FM230000 24009KT P6SM VCSH SCT030 BKN090
     FM230100 23009KT P6SM -SHRASN BKN030 OVC050
     FM230400 24008KT P6SM BKN030 OVC060
      AMD LTD TO CLD AND VIS=



000
FTUS46 KOTX 220326 AAB
TAFCOE
TAF AMD
KCOE 220326Z 2203/2224 15009KT 2SM RA BKN012 OVC021
     FM221200 23006KT 2SM BR BKN007 OVC010
     FM221500 24012G21KT 3SM BR OVC025
     FM222000 24019G28KT P6SM OVC100
      AMD LTD TO CLD AND VIS=



000
FTUS46 KOTX 220326 AAB
TAFCOE
TAF AMD
KCOE 220326Z 2203/2224 15009KT 2SM RA BKN012 OVC021
     FM221200 23006KT 2SM BR BKN007 OVC010
     FM221500 24012G21KT 3SM BR OVC025
     FM222000 24019G28KT P6SM OVC100
      AMD LTD TO CLD AND VIS=



000
FTUS46 KOTX 220109 AAB
TAFEAT
TAF AMD
KEAT 220109Z 2201/2224 13008KT 2SM -SN BR BKN012 OVC024
      TEMPO 2201/2203 1SM -SN BR OVC005
     FM220430 30002KT 4SM BR SCT009 OVC020
     FM221000 29010KT P6SM SCT020 BKN100
     FM221500 29014KT P6SM SCT100 BKN250=



000
FTUS46 KOTX 220109 AAB
TAFEAT
TAF AMD
KEAT 220109Z 2201/2224 13008KT 2SM -SN BR BKN012 OVC024
      TEMPO 2201/2203 1SM -SN BR OVC005
     FM220430 30002KT 4SM BR SCT009 OVC020
     FM221000 29010KT P6SM SCT020 BKN100
     FM221500 29014KT P6SM SCT100 BKN250=



000
FTUS46 KOTX 220107 AAA
TAFMWH
TAF AMD
KMWH 220107Z 2201/2224 00000KT 1SM -RA BR BKN004 OVC008
     FM220230 16008KT 2SM RA OVC005
     FM220600 21008KT 1SM BR OVC007
     FM221800 25014KT P6SM BKN250=



000
FTUS46 KOTX 220107 AAA
TAFMWH
TAF AMD
KMWH 220107Z 2201/2224 00000KT 1SM -RA BR BKN004 OVC008
     FM220230 16008KT 2SM RA OVC005
     FM220600 21008KT 1SM BR OVC007
     FM221800 25014KT P6SM BKN250=



000
FTUS46 KOTX 220106 AAA
TAFCOE
TAF AMD
KCOE 220106Z 2201/2224 06004KT 2SM BR VCSH BKN040 OVC060
     FM220130 11005KT 6SM -RA OVC024
     FM220430 15009KT 2SM RA BKN012 OVC021
     FM221200 23006KT 2SM BR BKN007 OVC010
     FM221500 24012G21KT 3SM BR OVC025
     FM222000 24019G28KT P6SM OVC100
      AMD LTD TO CLD AND VIS=



000
FTUS46 KOTX 220106 AAA
TAFCOE
TAF AMD
KCOE 220106Z 2201/2224 06004KT 2SM BR VCSH BKN040 OVC060
     FM220130 11005KT 6SM -RA OVC024
     FM220430 15009KT 2SM RA BKN012 OVC021
     FM221200 23006KT 2SM BR BKN007 OVC010
     FM221500 24012G21KT 3SM BR OVC025
     FM222000 24019G28KT P6SM OVC100
      AMD LTD TO CLD AND VIS=



000
FTUS46 KOTX 220017 AAA
TAFEAT
TAF AMD
KEAT 220017Z 2200/2224 13008KT 1/2SM SN FG SCT008 BKN016
      TEMPO 2200/2203 1/4SM +SN OVC005
     FM220430 30002KT 4SM BR SCT009 OVC020
     FM221000 29010KT P6SM SCT020 BKN100
     FM221500 29014KT P6SM SCT100 BKN250=



000
FTUS46 KOTX 220017 AAA
TAFEAT
TAF AMD
KEAT 220017Z 2200/2224 13008KT 1/2SM SN FG SCT008 BKN016
      TEMPO 2200/2203 1/4SM +SN OVC005
     FM220430 30002KT 4SM BR SCT009 OVC020
     FM221000 29010KT P6SM SCT020 BKN100
     FM221500 29014KT P6SM SCT100 BKN250=



000
FTUS46 KOTX 220011 AAA
TAFSFF
TAF AMD
KSFF 220011Z 2200/2224 00000KT 5SM -RA BR BKN045 OVC050
     FM220300 15009KT 2SM RA BKN014 OVC022
     FM220800 21007KT 2SM BR BKN007 OVC011
     FM221400 23010G19KT 1SM BR OVC008
     FM222000 24018G26KT 6SM BR OVC120=



000
FTUS46 KOTX 220011 AAA
TAFSFF
TAF AMD
KSFF 220011Z 2200/2224 00000KT 5SM -RA BR BKN045 OVC050
     FM220300 15009KT 2SM RA BKN014 OVC022
     FM220800 21007KT 2SM BR BKN007 OVC011
     FM221400 23010G19KT 1SM BR OVC008
     FM222000 24018G26KT 6SM BR OVC120=



000
FTUS46 KOTX 212340
TAFGEG
TAF
KGEG 212340Z 2200/2224 14006KT 6SM -RA BR BKN035 OVC060
     FM220300 12008KT 2SM RA BKN010 OVC020
     FM220700 21012KT 1SM BR OVC007
     FM221200 22012KT 1/2SM FG OVC003
     FM221600 23016G24KT 2SM BR BKN003 OVC100
     FM222000 24024G30KT 6SM BR BKN100=



000
FTUS46 KOTX 212340
TAFMWH
TAF
KMWH 212340Z 2200/2224 00000KT 1SM -RA BR FEW006 BKN040 OVC050
      TEMPO 2200/2202 2SM -FZRAPL BR BKN025
     FM220200 16008KT 2SM RA OVC005
     FM220600 21008KT 1SM BR OVC007
     FM221800 25014KT P6SM BKN250=



000
FTUS46 KOTX 212340
TAFEAT
TAF
KEAT 212340Z 2200/2224 11003KT 1/2SM -SN FG FEW002 OVC015
      TEMPO 2200/2202 2SM -FZRAPL
     FM220400 30002KT 4SM BR SCT009 OVC020
     FM221000 29010KT P6SM SCT020 BKN100
     FM221500 29014KT P6SM SCT100 BKN250=



000
FTUS46 KOTX 212340
TAFSFF
TAF
KSFF 212340Z 2200/2224 00000KT 6SM -RA BR BKN040 OVC050
     FM220300 15009KT 2SM RA BKN014 OVC022
     FM220800 21007KT 2SM BR BKN007 OVC011
     FM221400 23010G19KT 1SM BR OVC008
     FM222000 24018G26KT 6SM BR OVC120=



000
FTUS46 KOTX 212340
TAFLWS
TAF
KLWS 212340Z 2200/2224 11009KT P6SM VCSH OVC060
     FM220330 12008KT P6SM -RA SCT035 OVC050
     FM220700 13008KT P6SM RA OVC020
     FM221400 24015G24KT P6SM BKN025 OVC050
     FM221800 26018G28KT P6SM OVC250=



000
FTUS46 KOTX 212340
TAFPUW
TAF
KPUW 212340Z 2200/2224 12009KT P6SM VCSH BKN050 OVC090
     FM220300 13012KT 6SM -RA SCT020 OVC025
     FM220700 13019G27KT P6SM -RA SCT015 OVC030
     FM221400 24013G22KT P6SM BKN050 OVC100
     FM221900 26024G31KT P6SM OVC200=



000
FTUS46 KOTX 212340
TAFCOE
TAF
KCOE 212340Z 2200/2224 06004KT 2SM BR VCSH BKN040 OVC060
     FM220100 11005KT 6SM -RA OVC024
     FM220400 15009KT 2SM RA BKN012 OVC021
     FM221200 23006KT 2SM BR BKN007 OVC010
     FM221500 24012G21KT 3SM BR OVC025
     FM222000 24019G28KT P6SM OVC100
      AMD LTD TO CLD AND VIS=



000
FTUS46 KOTX 212340
TAFLWS
TAF
KLWS 212340Z 2200/2224 11009KT P6SM VCSH OVC060
     FM220330 12008KT P6SM -RA SCT035 OVC050
     FM220700 13008KT P6SM RA OVC020
     FM221400 24015G24KT P6SM BKN025 OVC050
     FM221800 26018G28KT P6SM OVC250=



000
FTUS46 KOTX 212340
TAFCOE
TAF
KCOE 212340Z 2200/2224 06004KT 2SM BR VCSH BKN040 OVC060
     FM220100 11005KT 6SM -RA OVC024
     FM220400 15009KT 2SM RA BKN012 OVC021
     FM221200 23006KT 2SM BR BKN007 OVC010
     FM221500 24012G21KT 3SM BR OVC025
     FM222000 24019G28KT P6SM OVC100
      AMD LTD TO CLD AND VIS=



000
FTUS46 KOTX 212340
TAFMWH
TAF
KMWH 212340Z 2200/2224 00000KT 1SM -RA BR FEW006 BKN040 OVC050
      TEMPO 2200/2202 2SM -FZRAPL BR BKN025
     FM220200 16008KT 2SM RA OVC005
     FM220600 21008KT 1SM BR OVC007
     FM221800 25014KT P6SM BKN250=



000
FTUS46 KOTX 212340
TAFGEG
TAF
KGEG 212340Z 2200/2224 14006KT 6SM -RA BR BKN035 OVC060
     FM220300 12008KT 2SM RA BKN010 OVC020
     FM220700 21012KT 1SM BR OVC007
     FM221200 22012KT 1/2SM FG OVC003
     FM221600 23016G24KT 2SM BR BKN003 OVC100
     FM222000 24024G30KT 6SM BR BKN100=



000
FTUS46 KOTX 212340
TAFEAT
TAF
KEAT 212340Z 2200/2224 11003KT 1/2SM -SN FG FEW002 OVC015
      TEMPO 2200/2202 2SM -FZRAPL
     FM220400 30002KT 4SM BR SCT009 OVC020
     FM221000 29010KT P6SM SCT020 BKN100
     FM221500 29014KT P6SM SCT100 BKN250=



000
FTUS46 KOTX 212340
TAFPUW
TAF
KPUW 212340Z 2200/2224 12009KT P6SM VCSH BKN050 OVC090
     FM220300 13012KT 6SM -RA SCT020 OVC025
     FM220700 13019G27KT P6SM -RA SCT015 OVC030
     FM221400 24013G22KT P6SM BKN050 OVC100
     FM221900 26024G31KT P6SM OVC200=



000
FTUS46 KOTX 212340
TAFSFF
TAF
KSFF 212340Z 2200/2224 00000KT 6SM -RA BR BKN040 OVC050
     FM220300 15009KT 2SM RA BKN014 OVC022
     FM220800 21007KT 2SM BR BKN007 OVC011
     FM221400 23010G19KT 1SM BR OVC008
     FM222000 24018G26KT 6SM BR OVC120=



000
FTUS46 KOTX 212224 AAB
TAFEAT
TAF AMD
KEAT 212224Z 2122/2218 11003KT 3/4SM -SN BR OVC008
      TEMPO 2122/2123 2SM -FZRAPL
     FM212300 VRB03KT 3SM -RASN BR BKN009 OVC016
     FM220400 30002KT 4SM BR SCT009 OVC020
     FM221000 29010KT P6SM SCT020 BKN100
     FM221500 29014KT P6SM SCT100 BKN250=



000
FTUS46 KOTX 212224 AAB
TAFEAT
TAF AMD
KEAT 212224Z 2122/2218 11003KT 3/4SM -SN BR OVC008
      TEMPO 2122/2123 2SM -FZRAPL
     FM212300 VRB03KT 3SM -RASN BR BKN009 OVC016
     FM220400 30002KT 4SM BR SCT009 OVC020
     FM221000 29010KT P6SM SCT020 BKN100
     FM221500 29014KT P6SM SCT100 BKN250=



000
FTUS46 KOTX 212223 AAB
TAFCOE
TAF AMD
KCOE 212223Z 2122/2218 06004KT 3SM BR VCSH OVC035
     FM220000 11005KT P6SM -RA OVC030
     FM220300 15009KT 6SM RA BKN010 OVC020
     FM220800 12010KT 6SM -RA SCT007 BKN010 OVC020
     FM221400 24011KT 4SM BR OVC008
      AMD LTD TO CLD AND VIS=



000
FTUS46 KOTX 212114 AAA
TAFEAT
TAF AMD
KEAT 212114Z 2121/2218 13005KT 2SM -RASN BR OVC025
      TEMPO 2121/2123 4SM -FZRAPL
     FM212300 VRB03KT 6SM -RASN BR BKN009 OVC016
     FM220400 30002KT 4SM BR SCT009 OVC020
     FM221000 29010KT P6SM SCT020 BKN100
     FM221500 29014KT P6SM SCT100 BKN250=



000
FTUS46 KOTX 212114 AAA
TAFEAT
TAF AMD
KEAT 212114Z 2121/2218 13005KT 2SM -RASN BR OVC025
      TEMPO 2121/2123 4SM -FZRAPL
     FM212300 VRB03KT 6SM -RASN BR BKN009 OVC016
     FM220400 30002KT 4SM BR SCT009 OVC020
     FM221000 29010KT P6SM SCT020 BKN100
     FM221500 29014KT P6SM SCT100 BKN250=



000
FTUS46 KOTX 212113 AAA
TAFMWH
TAF AMD
KMWH 212113Z 2121/2218 00000KT 1 1/2SM -RA BR BKN006 BKN035 OVC050
      TEMPO 2122/2124 2SM -FZRAPL BR BKN009
     FM220000 16005KT P6SM -RA BKN015 OVC030
     FM220200 16008KT 5SM RA OVC010
     FM220600 17008KT 4SM BR SCT015 BKN050
     FM221600 24006KT P6SM OVC060=



000
FTUS46 KOTX 212113 AAA
TAFMWH
TAF AMD
KMWH 212113Z 2121/2218 00000KT 1 1/2SM -RA BR BKN006 BKN035 OVC050
      TEMPO 2122/2124 2SM -FZRAPL BR BKN009
     FM220000 16005KT P6SM -RA BKN015 OVC030
     FM220200 16008KT 5SM RA OVC010
     FM220600 17008KT 4SM BR SCT015 BKN050
     FM221600 24006KT P6SM OVC060=



000
FTUS46 KOTX 212110 AAA
TAFCOE
TAF AMD
KCOE 212110Z 2121/2218 VRB04KT P6SM VCSH OVC045
     FM220000 11005KT P6SM -RA OVC030
     FM220300 15009KT 6SM RA BKN010 OVC020
     FM220800 12010KT 6SM -RA SCT007 BKN010 OVC020
     FM221400 24011KT 4SM BR OVC008
      AMD LTD TO CLD AND VIS=



000
FTUS46 KOTX 212110 AAA
TAFCOE
TAF AMD
KCOE 212110Z 2121/2218 VRB04KT P6SM VCSH OVC045
     FM220000 11005KT P6SM -RA OVC030
     FM220300 15009KT 6SM RA BKN010 OVC020
     FM220800 12010KT 6SM -RA SCT007 BKN010 OVC020
     FM221400 24011KT 4SM BR OVC008
      AMD LTD TO CLD AND VIS=



000
FTUS46 KOTX 212109 AAA
TAFGEG
TAF AMD
KGEG 212109Z 2121/2218 07004KT 5SM BR BKN035 OVC050
     FM212300 13007KT 6SM -RA BR SCT015 OVC030
     FM220100 15008KT 6SM RA BKN010 OVC020
     FM220800 21007KT P6SM -RA BKN007 OVC015
     FM221300 22011KT 4SM BR OVC007=



000
FTUS46 KOTX 212109 AAA
TAFGEG
TAF AMD
KGEG 212109Z 2121/2218 07004KT 5SM BR BKN035 OVC050
     FM212300 13007KT 6SM -RA BR SCT015 OVC030
     FM220100 15008KT 6SM RA BKN010 OVC020
     FM220800 21007KT P6SM -RA BKN007 OVC015
     FM221300 22011KT 4SM BR OVC007=



000
FTUS46 KOTX 212109 AAA
TAFSFF
TAF AMD
KSFF 212109Z 2121/2218 00000KT 5SM HZ OVC035
     FM212300 17005KT 6SM -RA BR SCT015 OVC030
     FM220200 15009KT 6SM RA BKN010 OVC020
     FM220800 21007KT P6SM -RA BKN007 OVC018
     FM221300 23008KT 5SM BR OVC012=



000
FTUS46 KOTX 212109 AAA
TAFSFF
TAF AMD
KSFF 212109Z 2121/2218 00000KT 5SM HZ OVC035
     FM212300 17005KT 6SM -RA BR SCT015 OVC030
     FM220200 15009KT 6SM RA BKN010 OVC020
     FM220800 21007KT P6SM -RA BKN007 OVC018
     FM221300 23008KT 5SM BR OVC012=



000
FTUS46 KOTX 211739
TAFPUW
TAF
KPUW 211739Z 2118/2218 10006KT P6SM OVC045
     FM212200 11007KT P6SM SCT040 OVC060
     FM220000 12011KT P6SM VCSH SCT040 OVC050
     FM220200 13012KT 6SM RA SCT020 OVC035
     FM220700 13012KT P6SM -RA SCT015 OVC030
     FM221400 24013G22KT P6SM BKN050 OVC100=



000
FTUS46 KOTX 211739
TAFGEG
TAF
KGEG 211739Z 2118/2218 16004KT P6SM SCT050 BKN070
     FM212000 15005KT P6SM SCT010 OVC030
     FM212300 16007KT P6SM VCSH SCT015 OVC040
     FM220200 15008KT 6SM RA BKN010 OVC020
     FM220800 21007KT P6SM -RA BKN007 OVC015
     FM221300 22011KT 4SM BR OVC007=



000
FTUS46 KOTX 211739
TAFSFF
TAF
KSFF 211739Z 2118/2218 04003KT 5SM BR BKN060 OVC080
     FM212000 15004KT P6SM SCT015 OVC035
     FM212300 17005KT P6SM VCSH SCT015 OVC040
     FM220300 15009KT 6SM RA BKN010 OVC020
     FM220800 21007KT P6SM -RA BKN007 OVC018
     FM221300 23008KT 5SM BR OVC012=



000
FTUS46 KOTX 211739
TAFPUW
TAF
KPUW 211739Z 2118/2218 10006KT P6SM OVC045
     FM212200 11007KT P6SM SCT040 OVC060
     FM220000 12011KT P6SM VCSH SCT040 OVC050
     FM220200 13012KT 6SM RA SCT020 OVC035
     FM220700 13012KT P6SM -RA SCT015 OVC030
     FM221400 24013G22KT P6SM BKN050 OVC100=



000
FTUS46 KOTX 211739
TAFMWH
TAF
KMWH 211739Z 2118/2218 14005KT 1SM BR OVC003
     FM212200 15003KT 4SM -RA BR SCT009 OVC017
      TEMPO 2122/2124 2SM -FZRAPL BR BKN009
     FM220000 16005KT P6SM -RA BKN015 OVC030
     FM220200 16008KT 5SM RA OVC010
     FM220600 17008KT 4SM BR SCT015 BKN050
     FM221600 24006KT P6SM OVC060=



000
FTUS46 KOTX 211739
TAFCOE
TAF
KCOE 211739Z 2118/2218 09004KT 1SM BR SCT003 BKN035 OVC040
      TEMPO 2118/2120 3SM BR OVC040
     FM212000 12005KT P6SM OVC030
     FM212100 15005KT P6SM VCSH SCT009 OVC015
     FM220300 15009KT 6SM RA BKN010 OVC020
     FM220800 12010KT 6SM -RA SCT007 BKN010 OVC020
     FM221400 24011KT 4SM BR OVC008
      AMD LTD TO CLD AND VIS=



000
FTUS46 KOTX 211739
TAFMWH
TAF
KMWH 211739Z 2118/2218 14005KT 1SM BR OVC003
     FM212200 15003KT 4SM -RA BR SCT009 OVC017
      TEMPO 2122/2124 2SM -FZRAPL BR BKN009
     FM220000 16005KT P6SM -RA BKN015 OVC030
     FM220200 16008KT 5SM RA OVC010
     FM220600 17008KT 4SM BR SCT015 BKN050
     FM221600 24006KT P6SM OVC060=



000
FTUS46 KOTX 211739
TAFEAT
TAF
KEAT 211739Z 2118/2218 07003KT 3SM HZ VCSH SCT029 OVC070
     FM212100 VRB03KT 4SM -FZRAPL BR BKN020 OVC040
     FM212300 VRB03KT 6SM -RASN BR BKN009 OVC016
     FM220400 30002KT 4SM BR SCT009 OVC020
     FM221000 29010KT P6SM SCT020 BKN100
     FM221500 29014KT P6SM SCT100 BKN250=



000
FTUS46 KOTX 211739
TAFLWS
TAF
KLWS 211739Z 2118/2218 07007KT P6SM OVC060
     FM220000 11008KT P6SM VCSH OVC050
     FM220300 12008KT P6SM -RA SCT050 OVC070
     FM220700 17007KT P6SM RA OVC030
     FM221400 24015KT P6SM BKN025 OVC050=



000
FTUS46 KOTX 211739
TAFLWS
TAF
KLWS 211739Z 2118/2218 07007KT P6SM OVC060
     FM220000 11008KT P6SM VCSH OVC050
     FM220300 12008KT P6SM -RA SCT050 OVC070
     FM220700 17007KT P6SM RA OVC030
     FM221400 24015KT P6SM BKN025 OVC050=



000
FTUS46 KOTX 211739
TAFCOE
TAF
KCOE 211739Z 2118/2218 09004KT 1SM BR SCT003 BKN035 OVC040
      TEMPO 2118/2120 3SM BR OVC040
     FM212000 12005KT P6SM OVC030
     FM212100 15005KT P6SM VCSH SCT009 OVC015
     FM220300 15009KT 6SM RA BKN010 OVC020
     FM220800 12010KT 6SM -RA SCT007 BKN010 OVC020
     FM221400 24011KT 4SM BR OVC008
      AMD LTD TO CLD AND VIS=



000
FTUS46 KOTX 211739
TAFGEG
TAF
KGEG 211739Z 2118/2218 16004KT P6SM SCT050 BKN070
     FM212000 15005KT P6SM SCT010 OVC030
     FM212300 16007KT P6SM VCSH SCT015 OVC040
     FM220200 15008KT 6SM RA BKN010 OVC020
     FM220800 21007KT P6SM -RA BKN007 OVC015
     FM221300 22011KT 4SM BR OVC007=



000
FTUS46 KOTX 211739
TAFSFF
TAF
KSFF 211739Z 2118/2218 04003KT 5SM BR BKN060 OVC080
     FM212000 15004KT P6SM SCT015 OVC035
     FM212300 17005KT P6SM VCSH SCT015 OVC040
     FM220300 15009KT 6SM RA BKN010 OVC020
     FM220800 21007KT P6SM -RA BKN007 OVC018
     FM221300 23008KT 5SM BR OVC012=



000
FTUS46 KOTX 211739
TAFEAT
TAF
KEAT 211739Z 2118/2218 07003KT 3SM HZ VCSH SCT029 OVC070
     FM212100 VRB03KT 4SM -FZRAPL BR BKN020 OVC040
     FM212300 VRB03KT 6SM -RASN BR BKN009 OVC016
     FM220400 30002KT 4SM BR SCT009 OVC020
     FM221000 29010KT P6SM SCT020 BKN100
     FM221500 29014KT P6SM SCT100 BKN250=



000
FTUS46 KOTX 211603 AAA
TAFEAT
TAF AMD
KEAT 211603Z 2116/2212 08003KT 2SM HZ OVC080
      TEMPO 2116/2118 4SM HZ
     FM211800 00000KT 5SM BR VCSH SCT020 OVC050
     FM212100 VRB03KT 4SM -FZRAPL BR BKN020 OVC040
     FM212300 VRB03KT 6SM -RASN BR BKN009 OVC016
     FM220400 30002KT 4SM BR SCT009 OVC020
     FM221000 29010KT P6SM SCT020 BKN100=



000
FTUS46 KOTX 211603 AAA
TAFEAT
TAF AMD
KEAT 211603Z 2116/2212 08003KT 2SM HZ OVC080
      TEMPO 2116/2118 4SM HZ
     FM211800 00000KT 5SM BR VCSH SCT020 OVC050
     FM212100 VRB03KT 4SM -FZRAPL BR BKN020 OVC040
     FM212300 VRB03KT 6SM -RASN BR BKN009 OVC016
     FM220400 30002KT 4SM BR SCT009 OVC020
     FM221000 29010KT P6SM SCT020 BKN100=



000
FTUS46 KOTX 211603 AAA
TAFEAT
TAF AMD
KEAT 211603Z 2116/2212 08003KT 2SM HZ OVC080
      TEMPO 2116/2118 4SM HZ
     FM211800 00000KT 5SM BR VCSH SCT020 OVC050
     FM212100 VRB03KT 4SM -FZRAPL BR BKN020 OVC040
     FM212300 VRB03KT 6SM -RASN BR BKN009 OVC016
     FM220400 30002KT 4SM BR SCT009 OVC020
     FM221000 29010KT P6SM SCT020 BKN100=



000
FTUS46 KOTX 211603 AAA
TAFEAT
TAF AMD
KEAT 211603Z 2116/2212 08003KT 2SM HZ OVC080
      TEMPO 2116/2118 4SM HZ
     FM211800 00000KT 5SM BR VCSH SCT020 OVC050
     FM212100 VRB03KT 4SM -FZRAPL BR BKN020 OVC040
     FM212300 VRB03KT 6SM -RASN BR BKN009 OVC016
     FM220400 30002KT 4SM BR SCT009 OVC020
     FM221000 29010KT P6SM SCT020 BKN100=



000
FTUS46 KOTX 211602 AAC
TAFMWH
TAF AMD
KMWH 211602Z 2116/2212 00000KT 1SM BR OVC003
     FM211800 VRB02KT 3SM BR BKN012 OVC100
     FM212100 15003KT 4SM -RA BR SCT009 OVC017
     FM212300 16005KT P6SM -RA BKN015 OVC030
     FM220200 16008KT 5SM RA OVC010
     FM220600 17008KT P6SM SCT015 BKN050=



000
FTUS46 KOTX 211602 AAC
TAFMWH
TAF AMD
KMWH 211602Z 2116/2212 00000KT 1SM BR OVC003
     FM211800 VRB02KT 3SM BR BKN012 OVC100
     FM212100 15003KT 4SM -RA BR SCT009 OVC017
     FM212300 16005KT P6SM -RA BKN015 OVC030
     FM220200 16008KT 5SM RA OVC010
     FM220600 17008KT P6SM SCT015 BKN050=



000
FTUS46 KOTX 211602 AAC
TAFMWH
TAF AMD
KMWH 211602Z 2116/2212 00000KT 1SM BR OVC003
     FM211800 VRB02KT 3SM BR BKN012 OVC100
     FM212100 15003KT 4SM -RA BR SCT009 OVC017
     FM212300 16005KT P6SM -RA BKN015 OVC030
     FM220200 16008KT 5SM RA OVC010
     FM220600 17008KT P6SM SCT015 BKN050=



000
FTUS46 KOTX 211602 AAC
TAFMWH
TAF AMD
KMWH 211602Z 2116/2212 00000KT 1SM BR OVC003
     FM211800 VRB02KT 3SM BR BKN012 OVC100
     FM212100 15003KT 4SM -RA BR SCT009 OVC017
     FM212300 16005KT P6SM -RA BKN015 OVC030
     FM220200 16008KT 5SM RA OVC010
     FM220600 17008KT P6SM SCT015 BKN050=



000
FTUS46 KOTX 211600 AAB
TAFCOE
TAF AMD
KCOE 211600Z 2116/2212 00000KT 1SM BR OVC003
     FM211800 13004KT 4SM BR SCT010 OVC015
     FM212100 15005KT P6SM -RA SCT009 OVC015
     FM220300 15009KT 6SM RA BKN010 OVC020
     FM220800 12010KT 6SM -RA SCT007 BKN010 OVC020
      AMD LTD TO CLD AND VIS=



000
FTUS46 KOTX 211600 AAB
TAFCOE
TAF AMD
KCOE 211600Z 2116/2212 00000KT 1SM BR OVC003
     FM211800 13004KT 4SM BR SCT010 OVC015
     FM212100 15005KT P6SM -RA SCT009 OVC015
     FM220300 15009KT 6SM RA BKN010 OVC020
     FM220800 12010KT 6SM -RA SCT007 BKN010 OVC020
      AMD LTD TO CLD AND VIS=



000
FTUS46 KOTX 211600 AAB
TAFCOE
TAF AMD
KCOE 211600Z 2116/2212 00000KT 1SM BR OVC003
     FM211800 13004KT 4SM BR SCT010 OVC015
     FM212100 15005KT P6SM -RA SCT009 OVC015
     FM220300 15009KT 6SM RA BKN010 OVC020
     FM220800 12010KT 6SM -RA SCT007 BKN010 OVC020
      AMD LTD TO CLD AND VIS=



000
FTUS46 KOTX 211600 AAB
TAFCOE
TAF AMD
KCOE 211600Z 2116/2212 00000KT 1SM BR OVC003
     FM211800 13004KT 4SM BR SCT010 OVC015
     FM212100 15005KT P6SM -RA SCT009 OVC015
     FM220300 15009KT 6SM RA BKN010 OVC020
     FM220800 12010KT 6SM -RA SCT007 BKN010 OVC020
      AMD LTD TO CLD AND VIS=



000
FTUS46 KOTX 211559 AAC
TAFSFF
TAF AMD
KSFF 211559Z 2116/2212 08003KT 3SM BR FEW006 BKN060 OVC080
     FM211800 16004KT P6SM SCT010 OVC020
     FM212300 17005KT P6SM VCSH SCT015 OVC040
     FM220300 15009KT P6SM RA BKN010 OVC020
     FM220800 21007KT P6SM -RA BKN007 OVC018=



000
FTUS46 KOTX 211559 AAC
TAFSFF
TAF AMD
KSFF 211559Z 2116/2212 08003KT 3SM BR FEW006 BKN060 OVC080
     FM211800 16004KT P6SM SCT010 OVC020
     FM212300 17005KT P6SM VCSH SCT015 OVC040
     FM220300 15009KT P6SM RA BKN010 OVC020
     FM220800 21007KT P6SM -RA BKN007 OVC018=



000
FTUS46 KOTX 211559 AAC
TAFSFF
TAF AMD
KSFF 211559Z 2116/2212 08003KT 3SM BR FEW006 BKN060 OVC080
     FM211800 16004KT P6SM SCT010 OVC020
     FM212300 17005KT P6SM VCSH SCT015 OVC040
     FM220300 15009KT P6SM RA BKN010 OVC020
     FM220800 21007KT P6SM -RA BKN007 OVC018=



000
FTUS46 KOTX 211559 AAC
TAFSFF
TAF AMD
KSFF 211559Z 2116/2212 08003KT 3SM BR FEW006 BKN060 OVC080
     FM211800 16004KT P6SM SCT010 OVC020
     FM212300 17005KT P6SM VCSH SCT015 OVC040
     FM220300 15009KT P6SM RA BKN010 OVC020
     FM220800 21007KT P6SM -RA BKN007 OVC018=



000
FTUS46 KOTX 211558 AAB
TAFGEG
TAF AMD
KGEG 211558Z 2116/2212 15007KT P6SM FEW020 BKN050 OVC070
     FM211900 15005KT P6SM SCT010 OVC030
     FM212300 16007KT 6SM BR VCSH SCT015 OVC040
     FM220200 15008KT 6SM RA BKN010 OVC020
     FM220800 21007KT P6SM -RA BKN007 OVC015=



000
FTUS46 KOTX 211558 AAB
TAFGEG
TAF AMD
KGEG 211558Z 2116/2212 15007KT P6SM FEW020 BKN050 OVC070
     FM211900 15005KT P6SM SCT010 OVC030
     FM212300 16007KT 6SM BR VCSH SCT015 OVC040
     FM220200 15008KT 6SM RA BKN010 OVC020
     FM220800 21007KT P6SM -RA BKN007 OVC015=



000
FTUS46 KOTX 211558 AAB
TAFGEG
TAF AMD
KGEG 211558Z 2116/2212 15007KT P6SM FEW020 BKN050 OVC070
     FM211900 15005KT P6SM SCT010 OVC030
     FM212300 16007KT 6SM BR VCSH SCT015 OVC040
     FM220200 15008KT 6SM RA BKN010 OVC020
     FM220800 21007KT P6SM -RA BKN007 OVC015=



000
FTUS46 KOTX 211558 AAB
TAFGEG
TAF AMD
KGEG 211558Z 2116/2212 15007KT P6SM FEW020 BKN050 OVC070
     FM211900 15005KT P6SM SCT010 OVC030
     FM212300 16007KT 6SM BR VCSH SCT015 OVC040
     FM220200 15008KT 6SM RA BKN010 OVC020
     FM220800 21007KT P6SM -RA BKN007 OVC015=



000
FTUS46 KOTX 211529 AAB
TAFMWH
TAF AMD
KMWH 211529Z 2115/2212 00000KT 2SM BR BKN004 BKN070
     FM211700 VRB02KT 5SM BR BKN012 OVC100
     FM212100 15003KT 4SM -RA BR SCT009 OVC017
     FM212300 16005KT P6SM -RA BKN015 OVC030
     FM220200 16008KT 5SM RA OVC010
     FM220600 17008KT P6SM SCT015 BKN050=



000
FTUS46 KOTX 211529 AAB
TAFMWH
TAF AMD
KMWH 211529Z 2115/2212 00000KT 2SM BR BKN004 BKN070
     FM211700 VRB02KT 5SM BR BKN012 OVC100
     FM212100 15003KT 4SM -RA BR SCT009 OVC017
     FM212300 16005KT P6SM -RA BKN015 OVC030
     FM220200 16008KT 5SM RA OVC010
     FM220600 17008KT P6SM SCT015 BKN050=



000
FTUS46 KOTX 211513 AAA
TAFCOE
TAF AMD
KCOE 211513Z 2115/2212 09003KT 1/4SM FG OVC005
     FM211900 13004KT 4SM BR SCT010 OVC015
     FM212100 15005KT P6SM -RA SCT009 OVC015
     FM220300 15009KT 6SM RA BKN010 OVC020
     FM220800 12010KT 6SM -RA SCT007 BKN010 OVC020
      AMD LTD TO CLD AND VIS=



000
FTUS46 KOTX 211513 AAA
TAFCOE
TAF AMD
KCOE 211513Z 2115/2212 09003KT 1/4SM FG OVC005
     FM211900 13004KT 4SM BR SCT010 OVC015
     FM212100 15005KT P6SM -RA SCT009 OVC015
     FM220300 15009KT 6SM RA BKN010 OVC020
     FM220800 12010KT 6SM -RA SCT007 BKN010 OVC020
      AMD LTD TO CLD AND VIS=



000
FTUS46 KOTX 211511 AAB
TAFSFF
TAF AMD
KSFF 211511Z 2115/2212 00000KT 3SM BR BKN005 OVC090
     FM211900 16004KT P6SM SCT010 OVC020
     FM212300 17005KT P6SM VCSH SCT015 OVC040
     FM220300 15009KT P6SM RA BKN010 OVC020
     FM220800 21007KT P6SM -RA BKN007 OVC018=



000
FTUS46 KOTX 211511 AAB
TAFSFF
TAF AMD
KSFF 211511Z 2115/2212 00000KT 3SM BR BKN005 OVC090
     FM211900 16004KT P6SM SCT010 OVC020
     FM212300 17005KT P6SM VCSH SCT015 OVC040
     FM220300 15009KT P6SM RA BKN010 OVC020
     FM220800 21007KT P6SM -RA BKN007 OVC018=



000
FTUS46 KOTX 211455 CCA
TAFEAT
TAF COR
KEAT 211455Z 2112/2212 00000KT 4SM BR SCT060 OVC130
     FM211900 00000KT 5SM BR VCSH SCT020 OVC050
     FM212100 VRB03KT 4SM -FZRAPL BR BKN020 OVC040
     FM212300 VRB03KT 6SM -RASN BR BKN009 OVC016
     FM220400 30002KT 4SM BR SCT009 OVC020
     FM221000 29010KT P6SM SCT020 BKN100=



000
FTUS46 KOTX 211455 CCA
TAFEAT
TAF COR
KEAT 211455Z 2112/2212 00000KT 4SM BR SCT060 OVC130
     FM211900 00000KT 5SM BR VCSH SCT020 OVC050
     FM212100 VRB03KT 4SM -FZRAPL BR BKN020 OVC040
     FM212300 VRB03KT 6SM -RASN BR BKN009 OVC016
     FM220400 30002KT 4SM BR SCT009 OVC020
     FM221000 29010KT P6SM SCT020 BKN100=



000
FTUS46 KOTX 211343 AAA
TAFMWH
TAF AMD
KMWH 211343Z 2114/2212 00000KT 3SM BR FEW003 OVC060
      TEMPO 2114/2116 2SM BR SCT003 OVC060
     FM211700 VRB02KT 5SM BR BKN012 OVC100
     FM212100 15003KT 4SM -RA BR SCT009 OVC017
     FM212300 16005KT P6SM -RA BKN015 OVC030
     FM220200 16008KT 5SM RA OVC010
     FM220600 17008KT P6SM SCT015 BKN050=



000
FTUS46 KOTX 211343 AAA
TAFMWH
TAF AMD
KMWH 211343Z 2114/2212 00000KT 3SM BR FEW003 OVC060
      TEMPO 2114/2116 2SM BR SCT003 OVC060
     FM211700 VRB02KT 5SM BR BKN012 OVC100
     FM212100 15003KT 4SM -RA BR SCT009 OVC017
     FM212300 16005KT P6SM -RA BKN015 OVC030
     FM220200 16008KT 5SM RA OVC010
     FM220600 17008KT P6SM SCT015 BKN050=



000
FTUS46 KOTX 211321 AAA
TAFGEG
TAF AMD
KGEG 211321Z 2113/2212 15004KT 4SM BR FEW005 SCT020 OVC040
     FM211900 15005KT 6SM BR SCT010 OVC030
     FM212300 16007KT 6SM BR VCSH SCT015 OVC040
     FM220200 15008KT 6SM RA BKN010 OVC020
     FM220800 21007KT P6SM -RA BKN007 OVC015=



000
FTUS46 KOTX 211222 AAA
TAFSFF
TAF AMD
KSFF 211222Z 2112/2212 00000KT 4SM BR FEW020 OVC050
     FM211900 16004KT P6SM SCT010 OVC020
     FM212300 17005KT P6SM VCSH SCT015 OVC040
     FM220300 15009KT P6SM RA BKN010 OVC020
     FM220800 21007KT P6SM -RA BKN007 OVC018=



000
FTUS46 KOTX 211222 AAA
TAFSFF
TAF AMD
KSFF 211222Z 2112/2212 00000KT 4SM BR FEW020 OVC050
     FM211900 16004KT P6SM SCT010 OVC020
     FM212300 17005KT P6SM VCSH SCT015 OVC040
     FM220300 15009KT P6SM RA BKN010 OVC020
     FM220800 21007KT P6SM -RA BKN007 OVC018=



000
FTUS46 KOTX 211139
TAFMWH
TAF
KMWH 211139Z 2112/2212 00000KT 3SM BR SCT060 OVC130
     FM211700 VRB02KT 5SM BR BKN012 OVC100
     FM212100 15003KT 4SM -RA BR SCT009 OVC017
     FM212300 16005KT P6SM -RA BKN015 OVC030
     FM220200 16008KT 5SM RA OVC010
     FM220600 17008KT P6SM SCT015 BKN050=



000
FTUS46 KOTX 211139
TAFEAT
TAF
KEAT 211139Z 2112/2212 00000KT 4SM BR SCT060 OVC130
     FM211900 00000KT 5SM BR VCSH SCT020 OVC050
     FM212100 VRB03KT 4SM -FZRAPL BR BKN020 OVC040
     FM212300 VRB03KT 1SM -SN BR BKN009 OVC016
     FM220400 30002KT 4SM BR SCT009 OVC020
     FM221000 29010KT P6SM SCT020 BKN100=



000
FTUS46 KOTX 211139
TAFMWH
TAF
KMWH 211139Z 2112/2212 00000KT 3SM BR SCT060 OVC130
     FM211700 VRB02KT 5SM BR BKN012 OVC100
     FM212100 15003KT 4SM -RA BR SCT009 OVC017
     FM212300 16005KT P6SM -RA BKN015 OVC030
     FM220200 16008KT 5SM RA OVC010
     FM220600 17008KT P6SM SCT015 BKN050=



000
FTUS46 KOTX 211139
TAFEAT
TAF
KEAT 211139Z 2112/2212 00000KT 4SM BR SCT060 OVC130
     FM211900 00000KT 5SM BR VCSH SCT020 OVC050
     FM212100 VRB03KT 4SM -FZRAPL BR BKN020 OVC040
     FM212300 VRB03KT 1SM -SN BR BKN009 OVC016
     FM220400 30002KT 4SM BR SCT009 OVC020
     FM221000 29010KT P6SM SCT020 BKN100=



000
FTUS46 KOTX 211137
TAFGEG
TAF
KGEG 211137Z 2112/2212 15004KT 4SM BR FEW005 BKN020 OVC030
     FM211900 15005KT 6SM BR SCT010 OVC030
     FM212300 16007KT 6SM BR VCSH SCT015 OVC040
     FM220200 15008KT 6SM RA BKN010 OVC020
     FM220800 21007KT P6SM -RA BKN007 OVC015=



000
FTUS46 KOTX 211137
TAFSFF
TAF
KSFF 211137Z 2112/2212 00000KT 5SM BR FEW005 OVC020
     FM211900 16004KT P6SM SCT010 OVC020
     FM212300 17005KT P6SM VCSH SCT015 OVC040
     FM220300 15009KT P6SM RA BKN010 OVC020
     FM220800 21007KT P6SM -RA BKN007 OVC018=



000
FTUS46 KOTX 211137
TAFPUW
TAF
KPUW 211137Z 2112/2212 12006KT P6SM OVC100
     FM212200 11007KT P6SM SCT040 OVC060
     FM220000 12011KT P6SM VCSH SCT040 OVC050
     FM220100 13012KT P6SM RA SCT020 OVC035
     FM220700 13012KT P6SM RA SCT015 OVC030=



000
FTUS46 KOTX 211137
TAFCOE
TAF
KCOE 211137Z 2112/2212 09004KT 3SM BR OVC005
     FM212100 09005KT P6SM -RA SCT009 OVC015
     FM220300 15009KT 6SM RA BKN010 OVC020
     FM220800 12010KT 6SM -RA SCT007 BKN010 OVC020
      AMD LTD TO CLD AND VIS=



000
FTUS46 KOTX 211137
TAFSFF
TAF
KSFF 211137Z 2112/2212 00000KT 5SM BR FEW005 OVC020
     FM211900 16004KT P6SM SCT010 OVC020
     FM212300 17005KT P6SM VCSH SCT015 OVC040
     FM220300 15009KT P6SM RA BKN010 OVC020
     FM220800 21007KT P6SM -RA BKN007 OVC018=



000
FTUS46 KOTX 211137
TAFLWS
TAF
KLWS 211137Z 2112/2212 10003KT P6SM SCT070 BKN100
     FM211600 12003KT P6SM SCT060 OVC090
     FM220300 12008KT P6SM -RA SCT050 OVC070=



000
FTUS46 KOTX 211137
TAFLWS
TAF
KLWS 211137Z 2112/2212 10003KT P6SM SCT070 BKN100
     FM211600 12003KT P6SM SCT060 OVC090
     FM220300 12008KT P6SM -RA SCT050 OVC070=



000
FTUS46 KOTX 211137
TAFGEG
TAF
KGEG 211137Z 2112/2212 15004KT 4SM BR FEW005 BKN020 OVC030
     FM211900 15005KT 6SM BR SCT010 OVC030
     FM212300 16007KT 6SM BR VCSH SCT015 OVC040
     FM220200 15008KT 6SM RA BKN010 OVC020
     FM220800 21007KT P6SM -RA BKN007 OVC015=



000
FTUS46 KOTX 211137
TAFPUW
TAF
KPUW 211137Z 2112/2212 12006KT P6SM OVC100
     FM212200 11007KT P6SM SCT040 OVC060
     FM220000 12011KT P6SM VCSH SCT040 OVC050
     FM220100 13012KT P6SM RA SCT020 OVC035
     FM220700 13012KT P6SM RA SCT015 OVC030=



000
FTUS46 KOTX 211137
TAFCOE
TAF
KCOE 211137Z 2112/2212 09004KT 3SM BR OVC005
     FM212100 09005KT P6SM -RA SCT009 OVC015
     FM220300 15009KT 6SM RA BKN010 OVC020
     FM220800 12010KT 6SM -RA SCT007 BKN010 OVC020
      AMD LTD TO CLD AND VIS=



000
FTUS46 KOTX 210745 AAA
TAFGEG
TAF AMD
KGEG 210745Z 2108/2206 04004KT 4SM BR BKN007 OVC020
      TEMPO 2108/2110 5SM BR SCT007 OVC020
     FM211000 17004KT 3SM BR OVC007
     FM211900 15004KT P6SM SCT009 OVC015
     FM212200 17007KT P6SM VCSH SCT015 OVC040
     FM220300 15009KT 6SM -RA BKN010 OVC020=



000
FTUS46 KOTX 210745 AAA
TAFGEG
TAF AMD
KGEG 210745Z 2108/2206 04004KT 4SM BR BKN007 OVC020
      TEMPO 2108/2110 5SM BR SCT007 OVC020
     FM211000 17004KT 3SM BR OVC007
     FM211900 15004KT P6SM SCT009 OVC015
     FM212200 17007KT P6SM VCSH SCT015 OVC040
     FM220300 15009KT 6SM -RA BKN010 OVC020=



000
FTUS46 KOTX 210743 AAA
TAFSFF
TAF AMD
KSFF 210743Z 2108/2206 00000KT 5SM HZ OVC007
      TEMPO 2108/2111 6SM BR SCT007 OVC011
     FM211900 15004KT P6SM SCT010 OVC018
     FM212200 17007KT P6SM VCSH SCT015 OVC040
     FM220300 15009KT P6SM -RA BKN012 OVC025=



000
FTUS46 KOTX 210743 AAA
TAFSFF
TAF AMD
KSFF 210743Z 2108/2206 00000KT 5SM HZ OVC007
      TEMPO 2108/2111 6SM BR SCT007 OVC011
     FM211900 15004KT P6SM SCT010 OVC018
     FM212200 17007KT P6SM VCSH SCT015 OVC040
     FM220300 15009KT P6SM -RA BKN012 OVC025=



000
FTUS46 KOTX 210538 AAA
TAFMWH
TAF AMD
KMWH 210538Z 2106/2206 00000KT 4SM BR BKN029 OVC090
     FM210900 VRB03KT 5SM BR OVC012
     FM211200 VRB03KT 3SM BR OVC007
     FM211700 VRB02KT P6SM BKN012 OVC100
     FM212100 15003KT P6SM VCSH SCT015 OVC040
     FM212300 16005KT P6SM -RA BKN015 OVC030
     FM220200 16008KT 5SM RA OVC010=



000
FTUS46 KOTX 210538 AAA
TAFMWH
TAF AMD
KMWH 210538Z 2106/2206 00000KT 4SM BR BKN029 OVC090
     FM210900 VRB03KT 5SM BR OVC012
     FM211200 VRB03KT 3SM BR OVC007
     FM211700 VRB02KT P6SM BKN012 OVC100
     FM212100 15003KT P6SM VCSH SCT015 OVC040
     FM212300 16005KT P6SM -RA BKN015 OVC030
     FM220200 16008KT 5SM RA OVC010=



000
FTUS46 KOTX 210534
TAFEAT
TAF
KEAT 210534Z 2106/2206 07004KT 6SM HZ FEW060 OVC110
     FM211800 00000KT 4SM -SNRA OVC030
     FM220000 11002KT 5SM FZRASN BR BKN015 OVC020
     FM220400 30002KT 4SM BR SCT009 OVC020=



000
FTUS46 KOTX 210534
TAFPUW
TAF
KPUW 210534Z 2106/2206 09005KT P6SM VCSH FEW030 BKN040
     FM210800 12006KT P6SM BKN040 OVC120
     FM212200 11007KT P6SM SCT050 OVC060
     FM220000 12011KT P6SM VCSH SCT040 OVC050
     FM220300 13012KT P6SM -RA OVC040=



000
FTUS46 KOTX 210534
TAFMWH
TAF
KMWH 210534Z 2106/2206 00000KT 5SM BR FEW090 OVC110
     FM210900 VRB03KT 5SM BR OVC012
     FM211200 VRB03KT 3SM BR OVC007
     FM211700 VRB02KT P6SM BKN012 OVC100
     FM212100 15003KT P6SM VCSH SCT015 OVC040
     FM212300 16005KT P6SM -RA BKN015 OVC030
     FM220200 16008KT 5SM RA OVC010=



000
FTUS46 KOTX 210534
TAFSFF
TAF
KSFF 210534Z 2106/2206 00000KT 6SM BR OVC010
      TEMPO 2106/2110 6SM -FZDZ OVC012
     FM211000 17004KT 5SM BR BKN010 BKN100
     FM211900 15004KT P6SM SCT010 OVC018
     FM212200 17007KT P6SM VCSH SCT015 OVC040
     FM220300 15009KT P6SM -RA BKN012 OVC025=



000
FTUS46 KOTX 210534
TAFLWS
TAF
KLWS 210534Z 2106/2206 10003KT P6SM BKN070 OVC090
     FM220300 15008KT P6SM -RA SCT050 OVC070=



000
FTUS46 KOTX 210534
TAFCOE
TAF
KCOE 210534Z 2106/2206 04004KT 3SM BR BKN007 OVC013
      TEMPO 2106/2110 5SM -FZDZ OVC009
     FM211000 06004KT 3SM BR OVC007
     FM211900 16004KT P6SM -RA SCT009 OVC015
     FM220300 15009KT 6SM -RA BKN010 OVC020
      AMD LTD TO CLD AND VIS=



000
FTUS46 KOTX 210534
TAFGEG
TAF
KGEG 210534Z 2106/2206 02004KT 5SM BR OVC007
      TEMPO 2106/2110 5SM -FZDZ OVC009
     FM211000 17004KT 3SM BR OVC007
     FM211900 15004KT P6SM SCT009 OVC015
     FM212200 17007KT P6SM VCSH SCT015 OVC040
     FM220300 15009KT 6SM -RA BKN010 OVC020=



000
FTUS46 KOTX 210534
TAFPUW
TAF
KPUW 210534Z 2106/2206 09005KT P6SM VCSH FEW030 BKN040
     FM210800 12006KT P6SM BKN040 OVC120
     FM212200 11007KT P6SM SCT050 OVC060
     FM220000 12011KT P6SM VCSH SCT040 OVC050
     FM220300 13012KT P6SM -RA OVC040=



000
FTUS46 KOTX 210534
TAFGEG
TAF
KGEG 210534Z 2106/2206 02004KT 5SM BR OVC007
      TEMPO 2106/2110 5SM -FZDZ OVC009
     FM211000 17004KT 3SM BR OVC007
     FM211900 15004KT P6SM SCT009 OVC015
     FM212200 17007KT P6SM VCSH SCT015 OVC040
     FM220300 15009KT 6SM -RA BKN010 OVC020=



000
FTUS46 KOTX 210534
TAFEAT
TAF
KEAT 210534Z 2106/2206 07004KT 6SM HZ FEW060 OVC110
     FM211800 00000KT 4SM -SNRA OVC030
     FM220000 11002KT 5SM FZRASN BR BKN015 OVC020
     FM220400 30002KT 4SM BR SCT009 OVC020=



000
FTUS46 KOTX 210534
TAFCOE
TAF
KCOE 210534Z 2106/2206 04004KT 3SM BR BKN007 OVC013
      TEMPO 2106/2110 5SM -FZDZ OVC009
     FM211000 06004KT 3SM BR OVC007
     FM211900 16004KT P6SM -RA SCT009 OVC015
     FM220300 15009KT 6SM -RA BKN010 OVC020
      AMD LTD TO CLD AND VIS=



000
FTUS46 KOTX 210534
TAFMWH
TAF
KMWH 210534Z 2106/2206 00000KT 5SM BR FEW090 OVC110
     FM210900 VRB03KT 5SM BR OVC012
     FM211200 VRB03KT 3SM BR OVC007
     FM211700 VRB02KT P6SM BKN012 OVC100
     FM212100 15003KT P6SM VCSH SCT015 OVC040
     FM212300 16005KT P6SM -RA BKN015 OVC030
     FM220200 16008KT 5SM RA OVC010=



000
FTUS46 KOTX 210534
TAFSFF
TAF
KSFF 210534Z 2106/2206 00000KT 6SM BR OVC010
      TEMPO 2106/2110 6SM -FZDZ OVC012
     FM211000 17004KT 5SM BR BKN010 BKN100
     FM211900 15004KT P6SM SCT010 OVC018
     FM212200 17007KT P6SM VCSH SCT015 OVC040
     FM220300 15009KT P6SM -RA BKN012 OVC025=



000
FTUS46 KOTX 210534
TAFLWS
TAF
KLWS 210534Z 2106/2206 10003KT P6SM BKN070 OVC090
     FM220300 15008KT P6SM -RA SCT050 OVC070=



000
FTUS46 KOTX 210237 AAB
TAFCOE
TAF AMD
KCOE 210237Z 2103/2124 02004KT 3/4SM BR OVC005
     FM212000 02006KT 4SM BR VCSH OVC015
      AMD LTD TO CLD AND VIS=



000
FTUS46 KOTX 210144 AAA
TAFEAT
TAF AMD
KEAT 210144Z 2102/2124 11004KT 6SM HZ OVC090
     FM210600 00000KT 4SM BR OVC050
     FM211800 00000KT 6SM HZ OVC030 PROB30 2118/2121 3SM -RASN
     FM212100 11002KT 3SM -RASN BR OVC020=



000
FTUS46 KOTX 210144 AAA
TAFEAT
TAF AMD
KEAT 210144Z 2102/2124 11004KT 6SM HZ OVC090
     FM210600 00000KT 4SM BR OVC050
     FM211800 00000KT 6SM HZ OVC030 PROB30 2118/2121 3SM -RASN
     FM212100 11002KT 3SM -RASN BR OVC020=



000
FTUS46 KOTX 210141 AAB
TAFPUW
TAF AMD
KPUW 210141Z 2102/2124 06006KT P6SM SCT030 BKN120
     FM211500 12006KT P6SM BKN025 OVC120
     FM212200 11007KT P6SM BKN080 OVC100=



000
FTUS46 KOTX 210141 AAB
TAFPUW
TAF AMD
KPUW 210141Z 2102/2124 06006KT P6SM SCT030 BKN120
     FM211500 12006KT P6SM BKN025 OVC120
     FM212200 11007KT P6SM BKN080 OVC100=



000
FTUS46 KOTX 210140 AAA
TAFSFF
TAF AMD
KSFF 210140Z 2102/2124 00000KT 5SM BR OVC014
     FM211500 VRB03KT 5SM BR VCSH SCT006 OVC015
     FM212200 VRB03KT P6SM VCSH SCT015 OVC050=



000
FTUS46 KOTX 210140 AAA
TAFSFF
TAF AMD
KSFF 210140Z 2102/2124 00000KT 5SM BR OVC014
     FM211500 VRB03KT 5SM BR VCSH SCT006 OVC015
     FM212200 VRB03KT P6SM VCSH SCT015 OVC050=



000
FTUS46 KOTX 210140 AAA
TAFCOE
TAF AMD
KCOE 210140Z 2102/2124 02004KT 4SM BR OVC008
     FM212000 02006KT 4SM BR VCSH OVC015
      AMD LTD TO CLD AND VIS=



000
FTUS46 KOTX 210140 AAA
TAFCOE
TAF AMD
KCOE 210140Z 2102/2124 02004KT 4SM BR OVC008
     FM212000 02006KT 4SM BR VCSH OVC015
      AMD LTD TO CLD AND VIS=



000
FTUS46 KOTX 210139 AAA
TAFGEG
TAF AMD
KGEG 210139Z 2102/2124 VRB04KT 5SM BR OVC008
     FM210800 17004KT 3SM BR BKN009 BKN100
     FM211900 15004KT P6SM SCT006 OVC015
     FM212200 17007KT P6SM VCSH SCT015 OVC040=



000
FTUS46 KOTX 210139 AAA
TAFGEG
TAF AMD
KGEG 210139Z 2102/2124 VRB04KT 5SM BR OVC008
     FM210800 17004KT 3SM BR BKN009 BKN100
     FM211900 15004KT P6SM SCT006 OVC015
     FM212200 17007KT P6SM VCSH SCT015 OVC040=



000
FTUS46 KOTX 210038 AAA
TAFPUW
TAF AMD
KPUW 210038Z 2101/2124 11008KT P6SM SCT018 BKN030
     FM210400 10006KT P6SM SCT030 OVC090
     FM211500 12006KT P6SM BKN025 OVC120
     FM212200 11007KT P6SM BKN080 OVC100=



000
FTUS46 KOTX 210038 AAA
TAFPUW
TAF AMD
KPUW 210038Z 2101/2124 11008KT P6SM SCT018 BKN030
     FM210400 10006KT P6SM SCT030 OVC090
     FM211500 12006KT P6SM BKN025 OVC120
     FM212200 11007KT P6SM BKN080 OVC100=



000
FTUS46 KOTX 202336
TAFSFF
TAF
KSFF 202336Z 2100/2124 00000KT 5SM BR BKN011 OVC018
     FM211500 VRB03KT 5SM BR VCSH SCT006 OVC015
     FM212200 VRB03KT P6SM VCSH SCT015 OVC050=



000
FTUS46 KOTX 202336
TAFPUW
TAF
KPUW 202336Z 2100/2124 11008KT P6SM OVC015
     FM211500 12006KT P6SM BKN025 OVC120
     FM212200 11007KT P6SM BKN080 OVC100=



000
FTUS46 KOTX 202336
TAFMWH
TAF
KMWH 202336Z 2100/2124 19003KT 5SM HZ BKN090
     FM210900 VRB03KT 5SM BR OVC012
     FM211200 VRB03KT 3SM BR OVC007
     FM211700 20006KT P6SM BKN012 OVC100
     FM212100 20007KT P6SM VCSH SCT015 OVC040=



000
FTUS46 KOTX 202336
TAFEAT
TAF
KEAT 202336Z 2100/2124 11004KT 5SM HZ OVC080
     FM210600 00000KT 4SM BR OVC050
     FM211800 00000KT 6SM HZ OVC030 PROB30 2118/2121 3SM -RASN
     FM212100 11002KT 3SM -RASN BR OVC020=



000
FTUS46 KOTX 202336
TAFGEG
TAF
KGEG 202336Z 2100/2124 VRB04KT 5SM BR BKN015
      TEMPO 2101/2104 SCT015
     FM210800 17004KT 3SM BR BKN009 BKN100
     FM211900 15004KT P6SM SCT006 OVC015
     FM212200 17007KT P6SM VCSH SCT015 OVC040=



000
FTUS46 KOTX 202336
TAFLWS
TAF
KLWS 202336Z 2100/2124 05005KT P6SM BKN060
     FM210400 00000KT P6SM BKN080
     FM211600 15008KT P6SM BKN050=



000
FTUS46 KOTX 202336
TAFCOE
TAF
KCOE 202336Z 2100/2124 02004KT 4SM BR OVC012
     FM210700 03005KT 5SM BR BKN008 OVC025
     FM212000 02006KT 4SM BR VCSH OVC015
      AMD LTD TO CLD AND VIS=



000
FTUS46 KOTX 202336
TAFGEG
TAF
KGEG 202336Z 2100/2124 VRB04KT 5SM BR BKN015
      TEMPO 2101/2104 SCT015
     FM210800 17004KT 3SM BR BKN009 BKN100
     FM211900 15004KT P6SM SCT006 OVC015
     FM212200 17007KT P6SM VCSH SCT015 OVC040=



000
FTUS46 KOTX 202336
TAFSFF
TAF
KSFF 202336Z 2100/2124 00000KT 5SM BR BKN011 OVC018
     FM211500 VRB03KT 5SM BR VCSH SCT006 OVC015
     FM212200 VRB03KT P6SM VCSH SCT015 OVC050=



000
FTUS46 KOTX 202336
TAFMWH
TAF
KMWH 202336Z 2100/2124 19003KT 5SM HZ BKN090
     FM210900 VRB03KT 5SM BR OVC012
     FM211200 VRB03KT 3SM BR OVC007
     FM211700 20006KT P6SM BKN012 OVC100
     FM212100 20007KT P6SM VCSH SCT015 OVC040=



000
FTUS46 KOTX 202336
TAFEAT
TAF
KEAT 202336Z 2100/2124 11004KT 5SM HZ OVC080
     FM210600 00000KT 4SM BR OVC050
     FM211800 00000KT 6SM HZ OVC030 PROB30 2118/2121 3SM -RASN
     FM212100 11002KT 3SM -RASN BR OVC020=



000
FTUS46 KOTX 202336
TAFPUW
TAF
KPUW 202336Z 2100/2124 11008KT P6SM OVC015
     FM211500 12006KT P6SM BKN025 OVC120
     FM212200 11007KT P6SM BKN080 OVC100=



000
FTUS46 KOTX 202336
TAFLWS
TAF
KLWS 202336Z 2100/2124 05005KT P6SM BKN060
     FM210400 00000KT P6SM BKN080
     FM211600 15008KT P6SM BKN050=



000
FTUS46 KOTX 202336
TAFCOE
TAF
KCOE 202336Z 2100/2124 02004KT 4SM BR OVC012
     FM210700 03005KT 5SM BR BKN008 OVC025
     FM212000 02006KT 4SM BR VCSH OVC015
      AMD LTD TO CLD AND VIS=



000
FTUS46 KOTX 202019 AAA
TAFPUW
TAF AMD
KPUW 202019Z 2020/2118 12006KT P6SM OVC018
     FM202300 11007KT P6SM SCT025 BKN040
     FM211500 12006KT P6SM VCSH BKN030 OVC060=



000
FTUS46 KOTX 202019 AAA
TAFPUW
TAF AMD
KPUW 202019Z 2020/2118 12006KT P6SM OVC018
     FM202300 11007KT P6SM SCT025 BKN040
     FM211500 12006KT P6SM VCSH BKN030 OVC060=



000
FTUS46 KOTX 202016 AAA
TAFMWH
TAF AMD
KMWH 202016Z 2020/2118 11003KT 5SM HZ SCT010
     FM202200 13003KT P6SM FEW010
     FM210300 VRB03KT 5SM BR OVC012
     FM211200 13004KT 3SM BR OVC007=



000
FTUS46 KOTX 202016 AAA
TAFMWH
TAF AMD
KMWH 202016Z 2020/2118 11003KT 5SM HZ SCT010
     FM202200 13003KT P6SM FEW010
     FM210300 VRB03KT 5SM BR OVC012
     FM211200 13004KT 3SM BR OVC007=



000
FTUS46 KOTX 201805 AAA
TAFLWS
TAF AMD
KLWS 201805Z 2018/2118 VRB04KT P6SM OVC040
      TEMPO 2018/2020 4SM -SHRA
     FM202200 13003KT P6SM BKN050
     FM210400 17006KT P6SM BKN080
     FM211200 15005KT P6SM OVC050=



000
FTUS46 KOTX 201805 AAA
TAFLWS
TAF AMD
KLWS 201805Z 2018/2118 VRB04KT P6SM OVC040
      TEMPO 2018/2020 4SM -SHRA
     FM202200 13003KT P6SM BKN050
     FM210400 17006KT P6SM BKN080
     FM211200 15005KT P6SM OVC050=



000
FTUS46 KOTX 201739
TAFPUW
TAF
KPUW 201739Z 2018/2118 11007KT 6SM -RA BR OVC025
     FM201900 12005KT P6SM BKN028 OVC040
     FM202300 11007KT P6SM SCT025 BKN040
     FM211500 12006KT P6SM VCSH BKN030 OVC060=



000
FTUS46 KOTX 201739
TAFEAT
TAF
KEAT 201739Z 2018/2118 00000KT 5SM BR SCT100
     FM202100 VRB03KT P6SM SCT030 BKN080
     FM210900 VRB03KT P6SM BKN020 OVC040=



000
FTUS46 KOTX 201739
TAFSFF
TAF
KSFF 201739Z 2018/2118 29005KT 1SM -SN BR SCT009 OVC029
     FM201900 VRB03KT P6SM BKN020 OVC030
     FM210300 19005KT P6SM BKN015
     FM211500 VRB02KT 3SM -SN BR SCT006 OVC014=



000
FTUS46 KOTX 201739
TAFMWH
TAF
KMWH 201739Z 2018/2118 VRB03KT 3SM BR OVC007
     FM202200 VRB03KT 6SM BR BKN008
     FM210300 VRB03KT 5SM BR OVC012
     FM211200 13004KT 3SM BR OVC007=



000
FTUS46 KOTX 201739
TAFLWS
TAF
KLWS 201739Z 2018/2118 VRB04KT P6SM OVC040
      TEMPO 2018/2020 -SHRA
     FM202200 13003KT P6SM BKN050
     FM210400 17006KT P6SM BKN080
     FM211200 15005KT P6SM OVC050=



000
FTUS46 KOTX 201739
TAFCOE
TAF
KCOE 201739Z 2018/2118 02006KT 1SM -SN BR OVC006
     FM202000 VRB04KT P6SM BKN012 OVC025
     FM210700 03005KT P6SM BKN008 OVC025
     FM211100 02006KT 2SM -SN BR OVC008
      AMD LTD TO CLD AND VIS=



000
FTUS46 KOTX 201739
TAFLWS
TAF
KLWS 201739Z 2018/2118 VRB04KT P6SM OVC040
      TEMPO 2018/2020 -SHRA
     FM202200 13003KT P6SM BKN050
     FM210400 17006KT P6SM BKN080
     FM211200 15005KT P6SM OVC050=



000
FTUS46 KOTX 201739
TAFGEG
TAF
KGEG 201739Z 2018/2118 15005KT 2SM -SN BR OVC021
     FM201900 16004KT 5SM BR BKN025 OVC080
     FM202100 17007KT P6SM BKN025
     FM210300 19005KT P6SM BKN009 OVC015
     FM211500 15004KT 3SM -SN BR SCT006 OVC012=



000
FTUS46 KOTX 201739
TAFEAT
TAF
KEAT 201739Z 2018/2118 00000KT 5SM BR SCT100
     FM202100 VRB03KT P6SM SCT030 BKN080
     FM210900 VRB03KT P6SM BKN020 OVC040=



000
FTUS46 KOTX 201739
TAFCOE
TAF
KCOE 201739Z 2018/2118 02006KT 1SM -SN BR OVC006
     FM202000 VRB04KT P6SM BKN012 OVC025
     FM210700 03005KT P6SM BKN008 OVC025
     FM211100 02006KT 2SM -SN BR OVC008
      AMD LTD TO CLD AND VIS=



000
FTUS46 KOTX 201739
TAFPUW
TAF
KPUW 201739Z 2018/2118 11007KT 6SM -RA BR OVC025
     FM201900 12005KT P6SM BKN028 OVC040
     FM202300 11007KT P6SM SCT025 BKN040
     FM211500 12006KT P6SM VCSH BKN030 OVC060=



000
FTUS46 KOTX 201739
TAFSFF
TAF
KSFF 201739Z 2018/2118 29005KT 1SM -SN BR SCT009 OVC029
     FM201900 VRB03KT P6SM BKN020 OVC030
     FM210300 19005KT P6SM BKN015
     FM211500 VRB02KT 3SM -SN BR SCT006 OVC014=



000
FTUS46 KOTX 201739
TAFMWH
TAF
KMWH 201739Z 2018/2118 VRB03KT 3SM BR OVC007
     FM202200 VRB03KT 6SM BR BKN008
     FM210300 VRB03KT 5SM BR OVC012
     FM211200 13004KT 3SM BR OVC007=



000
FTUS46 KOTX 201739
TAFGEG
TAF
KGEG 201739Z 2018/2118 15005KT 2SM -SN BR OVC021
     FM201900 16004KT 5SM BR BKN025 OVC080
     FM202100 17007KT P6SM BKN025
     FM210300 19005KT P6SM BKN009 OVC015
     FM211500 15004KT 3SM -SN BR SCT006 OVC012=



000
FTUS46 KOTX 201649 AAB
TAFMWH
TAF AMD
KMWH 201649Z 2017/2112 VRB03KT 3SM BR OVC007
     FM202000 VRB03KT 6SM BR BKN008
     FM202100 VRB03KT P6SM BKN012
     FM210800 VRB03KT P6SM BKN028 OVC040=



000
FTUS46 KOTX 201649 AAB
TAFMWH
TAF AMD
KMWH 201649Z 2017/2112 VRB03KT 3SM BR OVC007
     FM202000 VRB03KT 6SM BR BKN008
     FM202100 VRB03KT P6SM BKN012
     FM210800 VRB03KT P6SM BKN028 OVC040=



000
FTUS46 KOTX 201640 AAB
TAFEAT
TAF AMD
KEAT 201640Z 2017/2112 00000KT P6SM SCT100
     FM202100 VRB03KT P6SM SCT030 BKN080
     FM210900 VRB03KT P6SM BKN020 OVC040=



000
FTUS46 KOTX 201640 AAB
TAFEAT
TAF AMD
KEAT 201640Z 2017/2112 00000KT P6SM SCT100
     FM202100 VRB03KT P6SM SCT030 BKN080
     FM210900 VRB03KT P6SM BKN020 OVC040=



000
FTUS46 KOTX 201638 AAA
TAFMWH
TAF AMD
KMWH 201638Z 2017/2112 VRB03KT 3SM BR SCT010 OVC035
     FM202000 VRB03KT 6SM BR SCT015 BKN100
     FM202100 VRB03KT P6SM SCT025 OVC040
     FM210800 VRB03KT P6SM BKN028 OVC040=



000
FTUS46 KOTX 201638 AAA
TAFMWH
TAF AMD
KMWH 201638Z 2017/2112 VRB03KT 3SM BR SCT010 OVC035
     FM202000 VRB03KT 6SM BR SCT015 BKN100
     FM202100 VRB03KT P6SM SCT025 OVC040
     FM210800 VRB03KT P6SM BKN028 OVC040=



000
FTUS46 KOTX 201636 AAB
TAFLWS
TAF AMD
KLWS 201636Z 2017/2112 21003KT P6SM -RA SCT020 OVC040
     FM201800 16005KT P6SM BKN035 OVC080
     FM202200 13003KT P6SM OVC050=



000
FTUS46 KOTX 201636 AAB
TAFLWS
TAF AMD
KLWS 201636Z 2017/2112 21003KT P6SM -RA SCT020 OVC040
     FM201800 16005KT P6SM BKN035 OVC080
     FM202200 13003KT P6SM OVC050=



000
FTUS46 KOTX 201633 AAB
TAFPUW
TAF AMD
KPUW 201633Z 2017/2112 11007KT 6SM -RAPL BR OVC025
     FM201900 13005KT P6SM BKN028 OVC040
     FM202100 11007KT P6SM SCT025 BKN040=



000
FTUS46 KOTX 201633 AAB
TAFPUW
TAF AMD
KPUW 201633Z 2017/2112 11007KT 6SM -RAPL BR OVC025
     FM201900 13005KT P6SM BKN028 OVC040
     FM202100 11007KT P6SM SCT025 BKN040=



000
FTUS46 KOTX 201631 AAB
TAFCOE
TAF AMD
KCOE 201631Z 2017/2112 05003KT 2SM -SN BR BKN023 OVC030
      TEMPO 2017/2019 1SM -SN BR BKN008 OVC016
     FM202000 VRB04KT P6SM BKN018 OVC025
     FM210700 03005KT 6SM -RA BKN012 OVC025
      AMD LTD TO CLD AND VIS=



000
FTUS46 KOTX 201630 AAB
TAFSFF
TAF AMD
KSFF 201630Z 2017/2112 29005KT 1SM -SN BR SCT009 OVC029
     FM201900 VRB03KT P6SM BKN020 OVC030
     FM210300 19005KT P6SM BKN015
     FM210900 VRB02KT 6SM -RA BR SCT006 OVC014=



000
FTUS46 KOTX 201630 AAB
TAFSFF
TAF AMD
KSFF 201630Z 2017/2112 29005KT 1SM -SN BR SCT009 OVC029
     FM201900 VRB03KT P6SM BKN020 OVC030
     FM210300 19005KT P6SM BKN015
     FM210900 VRB02KT 6SM -RA BR SCT006 OVC014=



000
FTUS46 KOTX 201627 AAB
TAFGEG
TAF AMD
KGEG 201627Z 2016/2112 06005KT 1SM -SN BR SCT016 OVC025
     FM201800 VRB04KT 2SM -SN BR BKN020 OVC030
     FM201900 16004KT P6SM BKN018 OVC030
     FM210300 19005KT P6SM BKN009 OVC015
     FM210900 15004KT 5SM -RA BR SCT006 OVC012=



000
FTUS46 KOTX 201627 AAB
TAFGEG
TAF AMD
KGEG 201627Z 2016/2112 06005KT 1SM -SN BR SCT016 OVC025
     FM201800 VRB04KT 2SM -SN BR BKN020 OVC030
     FM201900 16004KT P6SM BKN018 OVC030
     FM210300 19005KT P6SM BKN009 OVC015
     FM210900 15004KT 5SM -RA BR SCT006 OVC012=



000
FTUS46 KOTX 201523 AAA
TAFCOE
TAF AMD
KCOE 201523Z 2015/2112 05003KT 3SM -SN BR BKN023 OVC030
      TEMPO 2015/2019 1SM -SN BR BKN008 OVC016
     FM202000 VRB04KT P6SM BKN018 OVC025
     FM210700 03005KT 6SM -RA BKN012 OVC025
      AMD LTD TO CLD AND VIS=



000
FTUS46 KOTX 201523 AAA
TAFCOE
TAF AMD
KCOE 201523Z 2015/2112 05003KT 3SM -SN BR BKN023 OVC030
      TEMPO 2015/2019 1SM -SN BR BKN008 OVC016
     FM202000 VRB04KT P6SM BKN018 OVC025
     FM210700 03005KT 6SM -RA BKN012 OVC025
      AMD LTD TO CLD AND VIS=



000
FTUS46 KOTX 201521 AAA
TAFGEG
TAF AMD
KGEG 201521Z 2015/2112 06005KT 3SM -SN BR SCT016 OVC030
      TEMPO 2015/2017 1SM -SN BR BKN016 OVC030
     FM201900 16004KT P6SM BKN018 OVC030
     FM210300 19005KT P6SM BKN009 OVC015
     FM210900 15004KT 5SM -RA BR SCT006 OVC012=



000
FTUS46 KOTX 201521 AAA
TAFGEG
TAF AMD
KGEG 201521Z 2015/2112 06005KT 3SM -SN BR SCT016 OVC030
      TEMPO 2015/2017 1SM -SN BR BKN016 OVC030
     FM201900 16004KT P6SM BKN018 OVC030
     FM210300 19005KT P6SM BKN009 OVC015
     FM210900 15004KT 5SM -RA BR SCT006 OVC012=



000
FTUS46 KOTX 201521 AAA
TAFSFF
TAF AMD
KSFF 201521Z 2015/2112 29005KT 3SM -SN BR FEW021 OVC029
      TEMPO 2016/2018 1SM -SN BR BKN018 OVC025
     FM201900 VRB03KT P6SM BKN020 OVC030
     FM210300 19005KT P6SM BKN015
     FM210900 VRB02KT 6SM -RA BR SCT006 OVC014=



000
FTUS46 KOTX 201521 AAA
TAFSFF
TAF AMD
KSFF 201521Z 2015/2112 29005KT 3SM -SN BR FEW021 OVC029
      TEMPO 2016/2018 1SM -SN BR BKN018 OVC025
     FM201900 VRB03KT P6SM BKN020 OVC030
     FM210300 19005KT P6SM BKN015
     FM210900 VRB02KT 6SM -RA BR SCT006 OVC014=



000
FTUS46 KOTX 201403 AAA
TAFEAT
TAF AMD
KEAT 201403Z 2014/2112 00000KT P6SM SCT100 OVC150
     FM202100 VRB03KT P6SM SCT030 BKN080
     FM210900 VRB03KT P6SM BKN020 OVC040=



000
FTUS46 KOTX 201403 AAA
TAFEAT
TAF AMD
KEAT 201403Z 2014/2112 00000KT P6SM SCT100 OVC150
     FM202100 VRB03KT P6SM SCT030 BKN080
     FM210900 VRB03KT P6SM BKN020 OVC040=



000
FTUS46 KOTX 201400 AAA
TAFPUW
TAF AMD
KPUW 201400Z 2014/2112 00000KT 6SM -FZRAPL SCT025 OVC060
      TEMPO 2014/2016 4SM -SN BR
     FM201700 13005KT P6SM -RA BKN028 OVC040
     FM202100 11007KT P6SM SCT025 BKN040=



000
FTUS46 KOTX 201400 AAA
TAFPUW
TAF AMD
KPUW 201400Z 2014/2112 00000KT 6SM -FZRAPL SCT025 OVC060
      TEMPO 2014/2016 4SM -SN BR
     FM201700 13005KT P6SM -RA BKN028 OVC040
     FM202100 11007KT P6SM SCT025 BKN040=



000
FTUS46 KOTX 201300 AAA
TAFLWS
TAF AMD
KLWS 201300Z 2013/2112 26006KT P6SM VCSH SCT040 OVC080
      TEMPO 2013/2016 6SM -RAPL SCT025 OVC050
     FM201630 21003KT P6SM -RA SCT020 OVC040
     FM201800 16005KT P6SM BKN035 OVC080
     FM202200 13003KT P6SM OVC050=



000
FTUS46 KOTX 201148 CCA
TAFEAT
TAF COR
KEAT 201148Z 2012/2112 32003KT P6SM VCSH BKN100
     FM201300 VRB02KT 5SM -RAPL BR SCT025 OVC040
     FM201530 VRB03KT 6SM BR BKN028 OVC045
     FM202100 VRB03KT P6SM SCT030 BKN080
     FM210900 VRB03KT P6SM BKN020 OVC040=



000
FTUS46 KOTX 201148 CCA
TAFEAT
TAF COR
KEAT 201148Z 2012/2112 32003KT P6SM VCSH BKN100
     FM201300 VRB02KT 5SM -RAPL BR SCT025 OVC040
     FM201530 VRB03KT 6SM BR BKN028 OVC045
     FM202100 VRB03KT P6SM SCT030 BKN080
     FM210900 VRB03KT P6SM BKN020 OVC040=



000
FTUS46 KOTX 201144 CCA
TAFMWH
TAF COR
KMWH 201144Z 2012/2112 00000KT P6SM VCSH BKN100
     FM201300 VRB03KT 2SM -SN BR SCT020 OVC035
     FM201700 VRB03KT 4SM BR SCT015 BKN028
     FM202100 VRB03KT P6SM SCT025 OVC040
     FM210800 VRB03KT P6SM BKN028 OVC040=



000
FTUS46 KOTX 201139
TAFMWH
TAF
KMWH 201139Z 2012/2112 00000KT P6SM BKN100
     FM201300 VRB03KT 4SM -SNPL SCT020 OVC045
     FM201500 VRB03KT 2SM -SNPL OVC030
     FM201700 VRB03KT 4SM BR SCT015 BKN028
     FM201900 VRB03KT P6SM SCT025 OVC040=



000
FTUS46 KOTX 201139
TAFLWS
TAF
KLWS 201139Z 2012/2112 12006KT P6SM OVC100
     FM201230 12004KT 6SM -RASN BKN025 OVC045
     FM201800 16005KT P6SM BKN035 OVC080
     FM202200 13003KT P6SM OVC050=



000
FTUS46 KOTX 201139
TAFGEG
TAF
KGEG 201139Z 2012/2112 06005KT P6SM BKN100 BKN140 BKN200
     FM201530 VRB04KT P6SM VCSH SCT020 OVC050
      TEMPO 2016/2019 2SM -SN BR BKN020
     FM202000 16004KT P6SM BKN018 OVC030
     FM210300 19005KT P6SM BKN009 OVC015
     FM210900 15004KT 5SM -RA BR SCT006 OVC012=



000
FTUS46 KOTX 201139
TAFPUW
TAF
KPUW 201139Z 2012/2112 11008KT P6SM SCT090 OVC120
     FM201300 12008KT 3SM -SNPL BR BKN020 OVC035
     FM201700 13005KT P6SM -RA BKN020 OVC040
     FM202100 11007KT P6SM SCT025 BKN040=



000
FTUS46 KOTX 201139
TAFEAT
TAF
KEAT 201139Z 2012/2112 32003KT P6SM BKN100
     FM201200 VRB02KT 4SM -SNPL OVC040
     FM201400 VRB03KT 6SM BR BKN028 OVC045
     FM202100 VRB03KT P6SM SCT030 BKN080=



000
FTUS46 KOTX 201139
TAFCOE
TAF
KCOE 201139Z 2012/2112 04008KT P6SM OVC100
     FM201600 05005KT P6SM VCSH BKN015 OVC030
      TEMPO 2017/2021 2SM -SN BR BKN008 OVC016
     FM202100 VRB04KT P6SM BKN018 OVC025
     FM210700 03005KT 6SM -RA BKN012 OVC025
      AMD LTD TO CLD AND VIS=



000
FTUS46 KOTX 201139
TAFPUW
TAF
KPUW 201139Z 2012/2112 11008KT P6SM SCT090 OVC120
     FM201300 12008KT 3SM -SNPL BR BKN020 OVC035
     FM201700 13005KT P6SM -RA BKN020 OVC040
     FM202100 11007KT P6SM SCT025 BKN040=



000
FTUS46 KOTX 201139
TAFCOE
TAF
KCOE 201139Z 2012/2112 04008KT P6SM OVC100
     FM201600 05005KT P6SM VCSH BKN015 OVC030
      TEMPO 2017/2021 2SM -SN BR BKN008 OVC016
     FM202100 VRB04KT P6SM BKN018 OVC025
     FM210700 03005KT 6SM -RA BKN012 OVC025
      AMD LTD TO CLD AND VIS=



000
FTUS46 KOTX 201139
TAFSFF
TAF
KSFF 201139Z 2012/2112 00000KT P6SM OVC100
     FM201530 VRB04KT P6SM VCSH SCT025 OVC050
      TEMPO 2016/2019 2SM -SN BR BKN025
     FM201900 VRB03KT P6SM BKN020 OVC030
     FM210300 19005KT P6SM BKN015
     FM210900 VRB02KT 6SM -RA BR SCT006 OVC014=



000
FTUS46 KOTX 201139
TAFSFF
TAF
KSFF 201139Z 2012/2112 00000KT P6SM OVC100
     FM201530 VRB04KT P6SM VCSH SCT025 OVC050
      TEMPO 2016/2019 2SM -SN BR BKN025
     FM201900 VRB03KT P6SM BKN020 OVC030
     FM210300 19005KT P6SM BKN015
     FM210900 VRB02KT 6SM -RA BR SCT006 OVC014=



000
FTUS46 KOTX 201139
TAFEAT
TAF
KEAT 201139Z 2012/2112 32003KT P6SM BKN100
     FM201200 VRB02KT 4SM -SNPL OVC040
     FM201400 VRB03KT 6SM BR BKN028 OVC045
     FM202100 VRB03KT P6SM SCT030 BKN080=



000
FTUS46 KOTX 201139
TAFMWH
TAF
KMWH 201139Z 2012/2112 00000KT P6SM BKN100
     FM201300 VRB03KT 4SM -SNPL SCT020 OVC045
     FM201500 VRB03KT 2SM -SNPL OVC030
     FM201700 VRB03KT 4SM BR SCT015 BKN028
     FM201900 VRB03KT P6SM SCT025 OVC040=



000
FTUS46 KOTX 201139
TAFGEG
TAF
KGEG 201139Z 2012/2112 06005KT P6SM BKN100 BKN140 BKN200
     FM201530 VRB04KT P6SM VCSH SCT020 OVC050
      TEMPO 2016/2019 2SM -SN BR BKN020
     FM202000 16004KT P6SM BKN018 OVC030
     FM210300 19005KT P6SM BKN009 OVC015
     FM210900 15004KT 5SM -RA BR SCT006 OVC012=



000
FTUS46 KOTX 201139
TAFLWS
TAF
KLWS 201139Z 2012/2112 12006KT P6SM OVC100
     FM201230 12004KT 6SM -RASN BKN025 OVC045
     FM201800 16005KT P6SM BKN035 OVC080
     FM202200 13003KT P6SM OVC050=



000
FTUS46 KOTX 200538
TAFLWS
TAF
KLWS 200538Z 2006/2106 12006KT P6SM OVC100
     FM200900 24004KT P6SM VCSH BKN050 OVC080
     FM201230 12004KT 6SM -RASN BKN025 OVC045
     FM202000 16005KT P6SM BKN035 OVC080
     FM202200 13003KT P6SM OVC050=



000
FTUS46 KOTX 200538
TAFGEG
TAF
KGEG 200538Z 2006/2106 06005KT P6SM BKN100 BKN140 BKN200
     FM200900 VRB04KT P6SM OVC050
     FM201600 VRB04KT 2SM -SN OVC015
     FM201900 16004KT P6SM BKN018 OVC030
     FM210300 19005KT P6SM BKN009 OVC015=



000
FTUS46 KOTX 200538
TAFSFF
TAF
KSFF 200538Z 2006/2106 00000KT P6SM OVC100
     FM200800 00000KT P6SM SCT070 OVC100
     FM201600 19002KT 3SM -SN OVC020
     FM201900 19004KT P6SM BKN020 OVC030
     FM210300 19005KT P6SM BKN015=



000
FTUS46 KOTX 200538
TAFEAT
TAF
KEAT 200538Z 2006/2106 32003KT P6SM BKN100
     FM201200 VRB02KT 4SM -SNPL OVC040
     FM201400 VRB03KT 6SM BR BKN028 OVC045
     FM202100 VRB03KT P6SM SCT030 BKN080=



000
FTUS46 KOTX 200538
TAFPUW
TAF
KPUW 200538Z 2006/2106 11008KT P6SM SCT090 OVC120
     FM200900 15009KT P6SM VCSH BKN040 OVC070
     FM201300 12008KT 3SM -SNPL BKN020 OVC035
     FM201600 13005KT P6SM -RA BKN020 OVC040
     FM201900 11007KT P6SM SCT025 BKN040=



000
FTUS46 KOTX 200538
TAFMWH
TAF
KMWH 200538Z 2006/2106 00000KT P6SM BKN100
     FM201300 VRB03KT 4SM -SNPL SCT020 OVC045
     FM201500 VRB03KT 2SM -SNPL OVC030
     FM201700 VRB03KT 4SM BR SCT015 BKN028
     FM201900 VRB03KT P6SM SCT025 OVC040=



000
FTUS46 KOTX 200538
TAFCOE
TAF
KCOE 200538Z 2006/2106 04008KT P6SM OVC100
     FM200800 06007KT P6SM BKN070 OVC120
     FM201600 14005KT 1SM -SN BKN015 OVC030
     FM202000 VRB04KT P6SM BKN018 OVC025
      AMD LTD TO CLD AND VIS=



000
FTUS46 KOTX 200538
TAFLWS
TAF
KLWS 200538Z 2006/2106 12006KT P6SM OVC100
     FM200900 24004KT P6SM VCSH BKN050 OVC080
     FM201230 12004KT 6SM -RASN BKN025 OVC045
     FM202000 16005KT P6SM BKN035 OVC080
     FM202200 13003KT P6SM OVC050=



000
FTUS46 KOTX 200538
TAFEAT
TAF
KEAT 200538Z 2006/2106 32003KT P6SM BKN100
     FM201200 VRB02KT 4SM -SNPL OVC040
     FM201400 VRB03KT 6SM BR BKN028 OVC045
     FM202100 VRB03KT P6SM SCT030 BKN080=



000
FTUS46 KOTX 200538
TAFPUW
TAF
KPUW 200538Z 2006/2106 11008KT P6SM SCT090 OVC120
     FM200900 15009KT P6SM VCSH BKN040 OVC070
     FM201300 12008KT 3SM -SNPL BKN020 OVC035
     FM201600 13005KT P6SM -RA BKN020 OVC040
     FM201900 11007KT P6SM SCT025 BKN040=



000
FTUS46 KOTX 200538
TAFCOE
TAF
KCOE 200538Z 2006/2106 04008KT P6SM OVC100
     FM200800 06007KT P6SM BKN070 OVC120
     FM201600 14005KT 1SM -SN BKN015 OVC030
     FM202000 VRB04KT P6SM BKN018 OVC025
      AMD LTD TO CLD AND VIS=



000
FTUS46 KOTX 200538
TAFSFF
TAF
KSFF 200538Z 2006/2106 00000KT P6SM OVC100
     FM200800 00000KT P6SM SCT070 OVC100
     FM201600 19002KT 3SM -SN OVC020
     FM201900 19004KT P6SM BKN020 OVC030
     FM210300 19005KT P6SM BKN015=



000
FTUS46 KOTX 200538
TAFMWH
TAF
KMWH 200538Z 2006/2106 00000KT P6SM BKN100
     FM201300 VRB03KT 4SM -SNPL SCT020 OVC045
     FM201500 VRB03KT 2SM -SNPL OVC030
     FM201700 VRB03KT 4SM BR SCT015 BKN028
     FM201900 VRB03KT P6SM SCT025 OVC040=



000
FTUS46 KOTX 200538
TAFGEG
TAF
KGEG 200538Z 2006/2106 06005KT P6SM BKN100 BKN140 BKN200
     FM200900 VRB04KT P6SM OVC050
     FM201600 VRB04KT 2SM -SN OVC015
     FM201900 16004KT P6SM BKN018 OVC030
     FM210300 19005KT P6SM BKN009 OVC015=



    US Dept of Commerce
    National Oceanic and Atmospheric Administration
    National Weather Service
    1325 East West Highway
    Silver Spring, MD 20910
    Page Author: NWS Internet Services Team
Disclaimer
Information Quality
Credits
Glossary
Privacy Policy
Freedom of Information Act (FOIA)
About Us
Career Opportunities